Wetterdaten: Freitag, 12.12.2025
Datum Zeit Temp. Aussen Temp. o. S. Temp +5cm Feuchte Auss Luftdruck Regen Sonnenschein Regendauer Solar Windböen Empfang
12.12.2025 00:00 4,8 °C 3,9 °C 1,1 °C 95 % 1022,4 hPa 0,0 l/m² 0 min 0 min 0 W/m² 6,4 km/h (2 Bft) 94,87 %
12.12.2025 00:02 4,7 °C 3,9 °C 1,1 °C 95 % 1022,4 hPa 0,0 l/m² 0 min 0 min 0 W/m² 12,9 km/h (3 Bft) 91,43 %
12.12.2025 00:04 4,7 °C 3,9 °C 1,1 °C 95 % 1022,3 hPa 0,0 l/m² 0 min 0 min 0 W/m² 3,2 km/h (1 Bft) 92,31 %
12.12.2025 00:07 4,7 °C 3,9 °C 1,1 °C 95 % 1022,2 hPa 0,0 l/m² 0 min 0 min 0 W/m² 12,9 km/h (3 Bft) 94,29 %
12.12.2025 00:14 4,7 °C 3,9 °C 1,1 °C 95 % 1022,2 hPa 0,0 l/m² 0 min 0 min 0 W/m² 16,1 km/h (3 Bft) 96,88 %
12.12.2025 00:16 4,7 °C 3,9 °C 1,1 °C 95 % 1022,2 hPa 0,0 l/m² 0 min 0 min 0 W/m² 6,4 km/h (2 Bft) 97,67 %
12.12.2025 00:18 4,7 °C 3,9 °C 1,1 °C 95 % 1022,2 hPa 0,0 l/m² 0 min 0 min 0 W/m² 6,4 km/h (2 Bft) 96,08 %
12.12.2025 00:20 4,7 °C 3,9 °C 1,1 °C 95 % 1022,2 hPa 0,0 l/m² 0 min 0 min 0 W/m² 12,9 km/h (3 Bft) 100,00 %
12.12.2025 00:22 4,6 °C 3,9 °C 1,1 °C 95 % 1022,2 hPa 0,0 l/m² 0 min 0 min 0 W/m² 6,4 km/h (2 Bft) 96,49 %
12.12.2025 00:24 4,6 °C 3,9 °C 1,1 °C 95 % 1022,2 hPa 0,0 l/m² 0 min 0 min 0 W/m² 6,4 km/h (2 Bft) 97,96 %
12.12.2025 00:26 4,6 °C 3,9 °C 1,1 °C 95 % 1022,3 hPa 0,0 l/m² 0 min 0 min 0 W/m² 6,4 km/h (2 Bft) 97,62 %
12.12.2025 00:28 4,6 °C 3,9 °C 1,1 °C 95 % 1022,2 hPa 0,0 l/m² 0 min 0 min 0 W/m² 6,4 km/h (2 Bft) 98,08 %
12.12.2025 00:30 4,6 °C 3,9 °C 1,1 °C 95 % 1022,2 hPa 0,0 l/m² 0 min 0 min 0 W/m² 3,2 km/h (1 Bft) 97,62 %
12.12.2025 00:32 4,6 °C 3,9 °C 1,1 °C 95 % 1022,2 hPa 0,0 l/m² 0 min 0 min 0 W/m² 6,4 km/h (2 Bft) 96,08 %
12.12.2025 00:34 4,6 °C 3,9 °C 1,1 °C 95 % 1022,2 hPa 0,0 l/m² 0 min 0 min 0 W/m² 3,2 km/h (1 Bft) 97,67 %
12.12.2025 00:36 4,6 °C 3,9 °C 1,1 °C 95 % 1022,2 hPa 0,0 l/m² 0 min 0 min 0 W/m² 3,2 km/h (1 Bft) 94,12 %
12.12.2025 00:38 4,6 °C 3,3 °C 1,1 °C 95 % 1022,1 hPa 0,0 l/m² 0 min 0 min 0 W/m² 6,4 km/h (2 Bft) 94,44 %
12.12.2025 00:40 4,6 °C 3,3 °C 1,1 °C 95 % 1022,1 hPa 0,0 l/m² 0 min 0 min 0 W/m² 3,2 km/h (1 Bft) 98,25 %
12.12.2025 00:42 4,6 °C 3,3 °C 1,1 °C 95 % 1022,1 hPa 0,0 l/m² 0 min 0 min 0 W/m² 6,4 km/h (2 Bft) 100,00 %
12.12.2025 00:44 4,6 °C 3,3 °C 1,1 °C 95 % 1022,1 hPa 0,0 l/m² 0 min 0 min 0 W/m² 3,2 km/h (1 Bft) 97,73 %
12.12.2025 00:46 4,5 °C 3,3 °C 1,1 °C 95 % 1022,1 hPa 0,0 l/m² 0 min 0 min 0 W/m² 6,4 km/h (2 Bft) 98,00 %
12.12.2025 00:48 4,5 °C 3,3 °C 1,1 °C 95 % 1022,0 hPa 0,0 l/m² 0 min 0 min 0 W/m² 6,4 km/h (2 Bft) 100,00 %
12.12.2025 00:50 4,5 °C 3,9 °C 1,1 °C 95 % 1022,0 hPa 0,0 l/m² 0 min 0 min 0 W/m² 6,4 km/h (2 Bft) 100,00 %
12.12.2025 00:52 4,5 °C 3,9 °C 1,1 °C 95 % 1022,0 hPa 0,0 l/m² 0 min 0 min 0 W/m² 6,4 km/h (2 Bft) 97,67 %
12.12.2025 00:54 4,5 °C 3,3 °C 1,1 °C 95 % 1021,9 hPa 0,0 l/m² 0 min 0 min 0 W/m² 6,4 km/h (2 Bft) 98,04 %
12.12.2025 00:56 4,4 °C 3,3 °C 1,1 °C 95 % 1021,9 hPa 0,0 l/m² 0 min 0 min 0 W/m² 3,2 km/h (1 Bft) 97,62 %
12.12.2025 00:58 4,4 °C 3,3 °C 1,1 °C 95 % 1021,9 hPa 0,0 l/m² 0 min 0 min 0 W/m² 0,0 km/h (0 Bft) 98,04 %
12.12.2025 01:00 4,4 °C 3,3 °C 0,6 °C 95 % 1021,9 hPa 0,0 l/m² 0 min 0 min 0 W/m² 3,2 km/h (1 Bft) 97,44 %
12.12.2025 01:02 4,4 °C 3,3 °C 0,6 °C 95 % 1021,8 hPa 0,0 l/m² 0 min 0 min 0 W/m² 3,2 km/h (1 Bft) 98,18 %
12.12.2025 01:04 4,4 °C 3,3 °C 0,6 °C 95 % 1021,8 hPa 0,0 l/m² 0 min 0 min 0 W/m² 3,2 km/h (1 Bft) 97,50 %
12.12.2025 01:06 4,4 °C 3,3 °C 0,6 °C 95 % 1021,8 hPa 0,0 l/m² 0 min 0 min 0 W/m² 0,0 km/h (0 Bft) 98,15 %
12.12.2025 01:08 4,4 °C 3,3 °C 0,6 °C 95 % 1021,8 hPa 0,0 l/m² 0 min 0 min 0 W/m² 3,2 km/h (1 Bft) 97,50 %
12.12.2025 01:10 4,4 °C 3,3 °C 0,6 °C 95 % 1021,8 hPa 0,0 l/m² 0 min 0 min 0 W/m² 0,0 km/h (0 Bft) 96,36 %
12.12.2025 01:12 4,3 °C 3,3 °C 0,6 °C 96 % 1021,9 hPa 0,0 l/m² 0 min 0 min 0 W/m² 3,2 km/h (1 Bft) 94,87 %
12.12.2025 01:14 4,3 °C 3,3 °C 0,6 °C 96 % 1021,8 hPa 0,0 l/m² 0 min 0 min 0 W/m² 3,2 km/h (1 Bft) 96,30 %
12.12.2025 01:16 4,3 °C 3,3 °C 0,6 °C 96 % 1021,8 hPa 0,0 l/m² 0 min 0 min 0 W/m² 3,2 km/h (1 Bft) 97,50 %
12.12.2025 01:18 4,3 °C 3,3 °C 0,6 °C 96 % 1021,9 hPa 0,0 l/m² 0 min 0 min 0 W/m² 0,0 km/h (0 Bft) 98,11 %
12.12.2025 01:20 4,3 °C 3,3 °C 0,6 °C 96 % 1021,9 hPa 0,0 l/m² 0 min 0 min 0 W/m² 0,0 km/h (0 Bft) 97,44 %
12.12.2025 01:22 4,3 °C 3,3 °C 0,6 °C 96 % 1021,9 hPa 0,0 l/m² 0 min 0 min 0 W/m² 0,0 km/h (0 Bft) 98,21 %
12.12.2025 01:24 4,3 °C 3,3 °C 0,6 °C 96 % 1021,9 hPa 0,0 l/m² 0 min 0 min 0 W/m² 3,2 km/h (1 Bft) 100,00 %
12.12.2025 01:26 4,2 °C 2,8 °C 0,6 °C 96 % 1021,9 hPa 0,0 l/m² 0 min 0 min 0 W/m² 0,0 km/h (0 Bft) 100,00 %
12.12.2025 01:28 4,2 °C 2,8 °C 0,6 °C 96 % 1021,9 hPa 0,0 l/m² 0 min 0 min 0 W/m² 0,0 km/h (0 Bft) 100,00 %
12.12.2025 01:30 4,2 °C 2,8 °C 0,6 °C 95 % 1021,8 hPa 0,0 l/m² 0 min 0 min 0 W/m² 0,0 km/h (0 Bft) 100,00 %
12.12.2025 01:32 4,2 °C 2,8 °C 0,6 °C 95 % 1021,8 hPa 0,0 l/m² 0 min 0 min 0 W/m² 3,2 km/h (1 Bft) 100,00 %
12.12.2025 01:34 4,2 °C 2,8 °C 0,6 °C 95 % 1021,8 hPa 0,0 l/m² 0 min 0 min 0 W/m² 3,2 km/h (1 Bft) 97,78 %
12.12.2025 01:36 4,1 °C 2,8 °C 0,6 °C 95 % 1021,7 hPa 0,0 l/m² 0 min 0 min 0 W/m² 3,2 km/h (1 Bft) 100,00 %
12.12.2025 01:38 4,1 °C 2,8 °C 0,6 °C 95 % 1021,7 hPa 0,0 l/m² 0 min 0 min 0 W/m² 3,2 km/h (1 Bft) 100,00 %
12.12.2025 01:40 4,1 °C 2,8 °C 0,6 °C 95 % 1021,7 hPa 0,0 l/m² 0 min 0 min 0 W/m² 3,2 km/h (1 Bft) 94,29 %
12.12.2025 01:42 4,1 °C 3,3 °C 0,6 °C 95 % 1021,7 hPa 0,0 l/m² 0 min 0 min 0 W/m² 3,2 km/h (1 Bft) 98,28 %
12.12.2025 01:44 4,1 °C 3,3 °C 0,6 °C 96 % 1021,7 hPa 0,0 l/m² 0 min 0 min 0 W/m² 3,2 km/h (1 Bft) 100,00 %
12.12.2025 01:46 4,1 °C 3,3 °C 0,6 °C 96 % 1021,7 hPa 0,0 l/m² 0 min 0 min 0 W/m² 3,2 km/h (1 Bft) 100,00 %
12.12.2025 01:48 4,1 °C 3,3 °C 0,6 °C 96 % 1021,7 hPa 0,0 l/m² 0 min 0 min 0 W/m² 3,2 km/h (1 Bft) 100,00 %
12.12.2025 01:50 4,1 °C 3,3 °C 0,6 °C 96 % 1021,7 hPa 0,0 l/m² 0 min 0 min 0 W/m² 3,2 km/h (1 Bft) 97,73 %
12.12.2025 01:52 4,1 °C 3,3 °C 0,6 °C 96 % 1021,6 hPa 0,0 l/m² 0 min 0 min 0 W/m² 6,4 km/h (2 Bft) 97,96 %
12.12.2025 01:54 4,1 °C 3,3 °C 0,6 °C 96 % 1021,6 hPa 0,0 l/m² 0 min 0 min 0 W/m² 3,2 km/h (1 Bft) 97,73 %
12.12.2025 01:56 4,1 °C 3,3 °C 0,6 °C 96 % 1021,6 hPa 0,0 l/m² 0 min 0 min 0 W/m² 3,2 km/h (1 Bft) 100,00 %
12.12.2025 01:58 4,1 °C 3,3 °C 0,6 °C 96 % 1021,7 hPa 0,0 l/m² 0 min 0 min 0 W/m² 3,2 km/h (1 Bft) 100,00 %
12.12.2025 02:00 4,1 °C 3,3 °C 0,6 °C 96 % 1021,7 hPa 0,0 l/m² 0 min 0 min 0 W/m² 3,2 km/h (1 Bft) 96,08 %
12.12.2025 02:02 4,1 °C 3,3 °C 0,6 °C 96 % 1021,7 hPa 0,0 l/m² 0 min 0 min 0 W/m² 3,2 km/h (1 Bft) 100,00 %
12.12.2025 02:04 4,2 °C 3,3 °C 0,6 °C 96 % 1021,7 hPa 0,0 l/m² 0 min 0 min 0 W/m² 0,0 km/h (0 Bft) 100,00 %
12.12.2025 02:06 4,1 °C 3,3 °C 0,6 °C 96 % 1021,6 hPa 0,0 l/m² 0 min 0 min 0 W/m² 0,0 km/h (0 Bft) 95,83 %
12.12.2025 02:08 4,1 °C 3,3 °C 0,6 °C 96 % 1021,6 hPa 0,0 l/m² 0 min 0 min 0 W/m² 0,0 km/h (0 Bft) 95,65 %
12.12.2025 02:10 4,1 °C 3,3 °C 0,6 °C 96 % 1021,6 hPa 0,0 l/m² 0 min 0 min 0 W/m² 0,0 km/h (0 Bft) 100,00 %
12.12.2025 02:12 4,1 °C 3,3 °C 0,6 °C 96 % 1021,6 hPa 0,0 l/m² 0 min 0 min 0 W/m² 0,0 km/h (0 Bft) 100,00 %
12.12.2025 02:14 4,2 °C 3,3 °C 0,6 °C 96 % 1021,6 hPa 0,0 l/m² 0 min 0 min 0 W/m² 0,0 km/h (0 Bft) 100,00 %
12.12.2025 02:16 4,2 °C 3,3 °C 0,6 °C 96 % 1021,5 hPa 0,0 l/m² 0 min 0 min 0 W/m² 3,2 km/h (1 Bft) 98,11 %
12.12.2025 02:18 4,1 °C 3,3 °C 0,6 °C 96 % 1021,6 hPa 0,0 l/m² 0 min 0 min 0 W/m² 6,4 km/h (2 Bft) 100,00 %
12.12.2025 02:20 4,2 °C 3,3 °C 0,6 °C 96 % 1021,6 hPa 0,0 l/m² 0 min 0 min 0 W/m² 6,4 km/h (2 Bft) 98,18 %
12.12.2025 02:22 4,2 °C 3,3 °C 0,6 °C 96 % 1021,6 hPa 0,0 l/m² 0 min 0 min 0 W/m² 6,4 km/h (2 Bft) 94,74 %
12.12.2025 02:24 4,2 °C 3,3 °C 0,6 °C 96 % 1021,6 hPa 0,0 l/m² 0 min 0 min 0 W/m² 6,4 km/h (2 Bft) 96,30 %
12.12.2025 02:26 4,2 °C 3,3 °C 0,6 °C 96 % 1021,6 hPa 0,0 l/m² 0 min 0 min 0 W/m² 3,2 km/h (1 Bft) 92,50 %
12.12.2025 02:28 4,2 °C 3,3 °C 0,6 °C 96 % 1021,6 hPa 0,0 l/m² 0 min 0 min 0 W/m² 3,2 km/h (1 Bft) 92,73 %
12.12.2025 02:30 4,2 °C 3,3 °C 0,6 °C 96 % 1021,5 hPa 0,0 l/m² 0 min 0 min 0 W/m² 6,4 km/h (2 Bft) 97,44 %
12.12.2025 02:32 4,2 °C 3,3 °C 0,6 °C 96 % 1021,5 hPa 0,0 l/m² 0 min 0 min 0 W/m² 3,2 km/h (1 Bft) 94,55 %
12.12.2025 02:34 4,2 °C 3,3 °C 0,6 °C 96 % 1021,5 hPa 0,0 l/m² 0 min 0 min 0 W/m² 6,4 km/h (2 Bft) 94,87 %
12.12.2025 02:36 4,2 °C 3,3 °C 0,6 °C 96 % 1021,5 hPa 0,0 l/m² 0 min 0 min 0 W/m² 6,4 km/h (2 Bft) 90,91 %
12.12.2025 02:38 4,2 °C 3,9 °C 1,1 °C 96 % 1021,5 hPa 0,0 l/m² 0 min 0 min 0 W/m² 3,2 km/h (1 Bft) 92,31 %
12.12.2025 02:40 4,3 °C 3,9 °C 1,1 °C 96 % 1021,5 hPa 0,0 l/m² 0 min 0 min 0 W/m² 6,4 km/h (2 Bft) 94,44 %
12.12.2025 02:42 4,3 °C 3,9 °C 1,1 °C 96 % 1021,5 hPa 0,0 l/m² 0 min 0 min 0 W/m² 3,2 km/h (1 Bft) 92,50 %
12.12.2025 02:44 4,3 °C 3,9 °C 1,1 °C 96 % 1021,5 hPa 0,0 l/m² 0 min 0 min 0 W/m² 3,2 km/h (1 Bft) 94,44 %
12.12.2025 02:46 4,3 °C 3,9 °C 1,1 °C 96 % 1021,5 hPa 0,0 l/m² 0 min 0 min 0 W/m² 6,4 km/h (2 Bft) 92,31 %
12.12.2025 02:48 4,3 °C 3,9 °C 1,1 °C 96 % 1021,5 hPa 0,0 l/m² 0 min 0 min 0 W/m² 6,4 km/h (2 Bft) 91,49 %
12.12.2025 02:50 4,3 °C 3,9 °C 1,1 °C 96 % 1021,5 hPa 0,0 l/m² 0 min 0 min 0 W/m² 3,2 km/h (1 Bft) 91,49 %
12.12.2025 02:52 4,3 °C 3,9 °C 1,1 °C 96 % 1021,5 hPa 0,0 l/m² 0 min 0 min 0 W/m² 3,2 km/h (1 Bft) 93,10 %
12.12.2025 02:54 4,3 °C 3,9 °C 1,1 °C 96 % 1021,5 hPa 0,0 l/m² 0 min 0 min 0 W/m² 3,2 km/h (1 Bft) 95,74 %
12.12.2025 02:56 4,3 °C 3,9 °C 1,1 °C 96 % 1021,5 hPa 0,0 l/m² 0 min 0 min 0 W/m² 3,2 km/h (1 Bft) 89,36 %
12.12.2025 02:58 4,3 °C 3,9 °C 1,1 °C 96 % 1021,5 hPa 0,0 l/m² 0 min 0 min 0 W/m² 3,2 km/h (1 Bft) 91,49 %
12.12.2025 03:00 4,3 °C 3,9 °C 1,1 °C 96 % 1021,4 hPa 0,0 l/m² 0 min 0 min 0 W/m² 3,2 km/h (1 Bft) 91,49 %
12.12.2025 03:02 4,3 °C 3,9 °C 1,1 °C 96 % 1021,4 hPa 0,0 l/m² 0 min 0 min 0 W/m² 3,2 km/h (1 Bft) 96,97 %
12.12.2025 03:04 4,3 °C 3,9 °C 1,1 °C 96 % 1021,4 hPa 0,0 l/m² 0 min 0 min 0 W/m² 6,4 km/h (2 Bft) 96,47 %
12.12.2025 03:08 4,3 °C 3,9 °C 1,1 °C 96 % 1021,3 hPa 0,0 l/m² 0 min 0 min 0 W/m² 3,2 km/h (1 Bft) 93,62 %
12.12.2025 03:10 4,4 °C 3,9 °C 1,1 °C 96 % 1021,3 hPa 0,0 l/m² 0 min 0 min 0 W/m² 6,4 km/h (2 Bft) 97,87 %
12.12.2025 03:12 4,4 °C 3,9 °C 1,1 °C 96 % 1021,2 hPa 0,0 l/m² 0 min 0 min 0 W/m² 3,2 km/h (1 Bft) 97,87 %
12.12.2025 03:14 4,4 °C 3,9 °C 1,1 °C 96 % 1021,2 hPa 0,0 l/m² 0 min 0 min 0 W/m² 6,4 km/h (2 Bft) 97,87 %
12.12.2025 03:16 4,5 °C 3,9 °C 1,1 °C 97 % 1021,2 hPa 0,0 l/m² 0 min 0 min 0 W/m² 6,4 km/h (2 Bft) 97,87 %
12.12.2025 03:18 4,6 °C 4,4 °C 1,1 °C 97 % 1021,2 hPa 0,0 l/m² 0 min 0 min 0 W/m² 9,7 km/h (2 Bft) 97,78 %
12.12.2025 03:20 4,6 °C 4,4 °C 1,7 °C 97 % 1021,1 hPa 0,0 l/m² 0 min 0 min 0 W/m² 3,2 km/h (1 Bft) 100,00 %
12.12.2025 03:22 4,6 °C 4,4 °C 1,7 °C 97 % 1021,0 hPa 0,0 l/m² 0 min 0 min 0 W/m² 3,2 km/h (1 Bft) 100,00 %
12.12.2025 03:24 4,7 °C 4,4 °C 1,7 °C 97 % 1020,9 hPa 0,0 l/m² 0 min 0 min 0 W/m² 6,4 km/h (2 Bft) 100,00 %
12.12.2025 03:26 4,7 °C 4,4 °C 1,7 °C 97 % 1020,9 hPa 0,0 l/m² 0 min 0 min 0 W/m² 3,2 km/h (1 Bft) 98,61 %
12.12.2025 03:28 4,7 °C 4,4 °C 1,7 °C 97 % 1020,9 hPa 0,0 l/m² 0 min 0 min 0 W/m² 3,2 km/h (1 Bft) 100,00 %
12.12.2025 03:30 4,8 °C 4,4 °C 1,7 °C 97 % 1020,8 hPa 0,0 l/m² 0 min 0 min 0 W/m² 6,4 km/h (2 Bft) 97,87 %
12.12.2025 03:32 4,8 °C 4,4 °C 1,7 °C 97 % 1020,7 hPa 0,0 l/m² 0 min 0 min 0 W/m² 3,2 km/h (1 Bft) 97,67 %
12.12.2025 03:34 4,8 °C 4,4 °C 1,7 °C 97 % 1020,6 hPa 0,0 l/m² 0 min 0 min 0 W/m² 6,4 km/h (2 Bft) 60,78 %
12.12.2025 03:36 4,9 °C 4,4 °C 1,7 °C 97 % 1020,6 hPa 0,0 l/m² 0 min 0 min 0 W/m² 6,4 km/h (2 Bft) 100,00 %
12.12.2025 03:38 4,9 °C 4,4 °C 1,7 °C 97 % 1020,6 hPa 0,0 l/m² 0 min 0 min 0 W/m² 6,4 km/h (2 Bft) 100,00 %
12.12.2025 03:40 4,9 °C 4,4 °C 1,7 °C 97 % 1020,6 hPa 0,0 l/m² 0 min 0 min 0 W/m² 6,4 km/h (2 Bft) 100,00 %
12.12.2025 03:42 5,0 °C 5,0 °C 1,7 °C 97 % 1020,6 hPa 0,0 l/m² 0 min 0 min 0 W/m² 12,9 km/h (3 Bft) 100,00 %
12.12.2025 03:44 5,1 °C 5,0 °C 1,7 °C 97 % 1020,6 hPa 0,0 l/m² 0 min 0 min 0 W/m² 6,4 km/h (2 Bft) 96,08 %
12.12.2025 03:46 5,1 °C 5,0 °C 1,7 °C 97 % 1020,7 hPa 0,0 l/m² 0 min 0 min 0 W/m² 9,7 km/h (2 Bft) 97,92 %
12.12.2025 03:48 5,1 °C 5,0 °C 1,7 °C 97 % 1020,7 hPa 0,0 l/m² 0 min 0 min 0 W/m² 3,2 km/h (1 Bft) 100,00 %
12.12.2025 03:50 5,2 °C 5,0 °C 2,2 °C 97 % 1020,7 hPa 0,0 l/m² 0 min 0 min 0 W/m² 6,4 km/h (2 Bft) 100,00 %
12.12.2025 03:52 5,2 °C 5,0 °C 2,2 °C 97 % 1020,7 hPa 0,0 l/m² 0 min 0 min 0 W/m² 6,4 km/h (2 Bft) 100,00 %
12.12.2025 03:54 5,2 °C 5,0 °C 2,2 °C 97 % 1020,6 hPa 0,0 l/m² 0 min 0 min 0 W/m² 6,4 km/h (2 Bft) 100,00 %
12.12.2025 03:56 5,3 °C 5,0 °C 2,2 °C 97 % 1020,7 hPa 0,0 l/m² 0 min 0 min 0 W/m² 6,4 km/h (2 Bft) 100,00 %
12.12.2025 04:00 5,4 °C 5,0 °C 2,2 °C 97 % 1020,7 hPa 0,0 l/m² 0 min 0 min 0 W/m² 9,7 km/h (2 Bft) 98,98 %
12.12.2025 04:06 5,5 °C 5,0 °C 2,2 °C 97 % 1020,5 hPa 0,0 l/m² 0 min 0 min 0 W/m² 12,9 km/h (3 Bft) 99,02 %
12.12.2025 04:07 5,6 °C 5,6 °C 2,2 °C 97 % 1020,5 hPa 0,0 l/m² 0 min 0 min 0 W/m² 12,9 km/h (3 Bft) 99,02 %
12.12.2025 04:12 5,6 °C 5,6 °C 2,2 °C 97 % 1020,5 hPa 0,0 l/m² 0 min 0 min 0 W/m² 9,7 km/h (2 Bft) 100,00 %
12.12.2025 04:14 5,7 °C 5,6 °C 2,2 °C 97 % 1020,5 hPa 0,0 l/m² 0 min 0 min 0 W/m² 9,7 km/h (2 Bft) 100,00 %
12.12.2025 04:16 5,7 °C 5,6 °C 2,2 °C 97 % 1020,5 hPa 0,0 l/m² 0 min 0 min 0 W/m² 12,9 km/h (3 Bft) 100,00 %
12.12.2025 04:18 5,8 °C 5,6 °C 2,2 °C 97 % 1020,4 hPa 0,0 l/m² 0 min 0 min 0 W/m² 6,4 km/h (2 Bft) 100,00 %
12.12.2025 04:20 5,8 °C 5,6 °C 2,8 °C 97 % 1020,5 hPa 0,0 l/m² 0 min 0 min 0 W/m² 12,9 km/h (3 Bft) 98,25 %
12.12.2025 04:22 5,8 °C 5,6 °C 2,8 °C 97 % 1020,5 hPa 0,0 l/m² 0 min 0 min 0 W/m² 6,4 km/h (2 Bft) 100,00 %
12.12.2025 04:24 5,9 °C 5,6 °C 2,8 °C 97 % 1020,5 hPa 0,0 l/m² 0 min 0 min 0 W/m² 6,4 km/h (2 Bft) 98,21 %
12.12.2025 04:26 5,9 °C 5,6 °C 2,8 °C 97 % 1020,5 hPa 0,0 l/m² 0 min 0 min 0 W/m² 6,4 km/h (2 Bft) 100,00 %
12.12.2025 04:28 5,9 °C 5,6 °C 2,8 °C 97 % 1020,5 hPa 0,0 l/m² 0 min 0 min 0 W/m² 6,4 km/h (2 Bft) 98,18 %
12.12.2025 04:32 6,0 °C 5,6 °C 2,8 °C 97 % 1020,4 hPa 0,0 l/m² 0 min 0 min 0 W/m² 9,7 km/h (2 Bft) 97,67 %
12.12.2025 04:34 6,1 °C 5,6 °C 2,8 °C 97 % 1020,4 hPa 0,0 l/m² 0 min 0 min 0 W/m² 9,7 km/h (2 Bft) 94,55 %
12.12.2025 04:36 6,1 °C 5,6 °C 2,8 °C 97 % 1020,5 hPa 0,0 l/m² 0 min 0 min 0 W/m² 6,4 km/h (2 Bft) 92,31 %
12.12.2025 04:38 6,1 °C 6,1 °C 2,8 °C 98 % 1020,5 hPa 0,0 l/m² 0 min 0 min 0 W/m² 12,9 km/h (3 Bft) 98,15 %
12.12.2025 04:40 6,1 °C 6,1 °C 2,8 °C 97 % 1020,5 hPa 0,0 l/m² 0 min 0 min 0 W/m² 6,4 km/h (2 Bft) 97,50 %
12.12.2025 04:42 6,2 °C 6,1 °C 2,8 °C 97 % 1020,5 hPa 0,0 l/m² 0 min 0 min 0 W/m² 6,4 km/h (2 Bft) 96,30 %
12.12.2025 04:44 6,2 °C 5,6 °C 2,8 °C 97 % 1020,5 hPa 0,0 l/m² 0 min 0 min 0 W/m² 12,9 km/h (3 Bft) 94,87 %
12.12.2025 04:48 6,2 °C 5,6 °C 2,8 °C 97 % 1020,4 hPa 0,0 l/m² 0 min 0 min 0 W/m² 9,7 km/h (2 Bft) 97,09 %
12.12.2025 04:50 6,2 °C 5,6 °C 2,8 °C 97 % 1020,4 hPa 0,0 l/m² 0 min 0 min 0 W/m² 12,9 km/h (3 Bft) 94,74 %
12.12.2025 04:52 6,2 °C 5,6 °C 2,8 °C 97 % 1020,4 hPa 0,0 l/m² 0 min 0 min 0 W/m² 9,7 km/h (2 Bft) 92,98 %
12.12.2025 04:54 6,3 °C 5,6 °C 2,8 °C 97 % 1020,4 hPa 0,0 l/m² 0 min 0 min 0 W/m² 12,9 km/h (3 Bft) 91,89 %
12.12.2025 04:58 6,3 °C 5,6 °C 2,8 °C 97 % 1020,4 hPa 0,0 l/m² 0 min 0 min 0 W/m² 16,1 km/h (3 Bft) 95,70 %
12.12.2025 05:00 6,3 °C 5,6 °C 2,8 °C 97 % 1020,5 hPa 0,0 l/m² 0 min 0 min 0 W/m² 6,4 km/h (2 Bft) 93,75 %
12.12.2025 05:02 6,3 °C 6,1 °C 2,8 °C 97 % 1020,5 hPa 0,0 l/m² 0 min 0 min 0 W/m² 16,1 km/h (3 Bft) 97,83 %
12.12.2025 05:06 6,4 °C 6,1 °C 2,8 °C 97 % 1020,6 hPa 0,0 l/m² 0 min 0 min 0 W/m² 12,9 km/h (3 Bft) 96,91 %
12.12.2025 05:10 6,4 °C 6,1 °C 2,8 °C 97 % 1020,6 hPa 0,0 l/m² 0 min 0 min 0 W/m² 19,3 km/h (3 Bft) 98,91 %
12.12.2025 05:12 6,4 °C 6,1 °C 2,8 °C 97 % 1020,6 hPa 0,0 l/m² 0 min 0 min 0 W/m² 12,9 km/h (3 Bft) 97,96 %
12.12.2025 05:14 6,5 °C 6,1 °C 2,8 °C 97 % 1020,6 hPa 0,0 l/m² 0 min 0 min 0 W/m² 9,7 km/h (2 Bft) 97,87 %
12.12.2025 05:18 6,5 °C 6,1 °C 2,8 °C 97 % 1020,5 hPa 0,0 l/m² 0 min 0 min 0 W/m² 16,1 km/h (3 Bft) 95,74 %
12.12.2025 05:20 6,5 °C 6,1 °C 2,8 °C 97 % 1020,4 hPa 0,0 l/m² 0 min 0 min 0 W/m² 12,9 km/h (3 Bft) 97,62 %
12.12.2025 05:22 6,5 °C 6,1 °C 2,8 °C 97 % 1020,4 hPa 0,0 l/m² 0 min 0 min 0 W/m² 6,4 km/h (2 Bft) 98,04 %
12.12.2025 05:24 6,5 °C 6,1 °C 2,8 °C 97 % 1020,4 hPa 0,0 l/m² 0 min 0 min 0 W/m² 6,4 km/h (2 Bft) 97,92 %
12.12.2025 05:26 6,5 °C 6,1 °C 2,8 °C 97 % 1020,4 hPa 0,0 l/m² 0 min 0 min 0 W/m² 12,9 km/h (3 Bft) 97,67 %
12.12.2025 05:28 6,5 °C 6,1 °C 2,8 °C 97 % 1020,4 hPa 0,0 l/m² 0 min 0 min 0 W/m² 12,9 km/h (3 Bft) 95,92 %
12.12.2025 05:30 6,5 °C 6,1 °C 2,8 °C 97 % 1020,4 hPa 0,0 l/m² 0 min 0 min 0 W/m² 6,4 km/h (2 Bft) 95,83 %
12.12.2025 05:32 6,5 °C 6,1 °C 2,8 °C 97 % 1020,4 hPa 0,0 l/m² 0 min 0 min 0 W/m² 9,7 km/h (2 Bft) 97,83 %
12.12.2025 05:34 6,5 °C 6,1 °C 2,8 °C 97 % 1020,4 hPa 0,0 l/m² 0 min 0 min 0 W/m² 6,4 km/h (2 Bft) 95,83 %
12.12.2025 05:36 6,5 °C 6,1 °C 2,8 °C 97 % 1020,4 hPa 0,0 l/m² 0 min 0 min 0 W/m² 6,4 km/h (2 Bft) 100,00 %
12.12.2025 05:38 6,5 °C 6,1 °C 2,8 °C 97 % 1020,5 hPa 0,0 l/m² 0 min 0 min 0 W/m² 9,7 km/h (2 Bft) 98,08 %
12.12.2025 05:40 6,5 °C 6,1 °C 2,8 °C 97 % 1020,5 hPa 0,0 l/m² 0 min 0 min 0 W/m² 6,4 km/h (2 Bft) 97,62 %
12.12.2025 05:42 6,5 °C 6,1 °C 2,8 °C 97 % 1020,4 hPa 0,0 l/m² 0 min 0 min 0 W/m² 16,1 km/h (3 Bft) 96,08 %
12.12.2025 05:44 6,5 °C 6,1 °C 2,8 °C 97 % 1020,4 hPa 0,0 l/m² 0 min 0 min 0 W/m² 12,9 km/h (3 Bft) 97,92 %
12.12.2025 05:46 6,5 °C 6,1 °C 2,8 °C 97 % 1020,4 hPa 0,0 l/m² 0 min 0 min 0 W/m² 9,7 km/h (2 Bft) 97,73 %
12.12.2025 05:50 6,5 °C 6,1 °C 2,8 °C 97 % 1020,4 hPa 0,0 l/m² 0 min 0 min 0 W/m² 9,7 km/h (2 Bft) 96,88 %
12.12.2025 05:52 6,5 °C 6,1 °C 2,8 °C 97 % 1020,4 hPa 0,0 l/m² 0 min 0 min 0 W/m² 12,9 km/h (3 Bft) 97,62 %
12.12.2025 05:56 6,6 °C 6,1 °C 2,8 °C 97 % 1020,4 hPa 0,0 l/m² 0 min 0 min 0 W/m² 19,3 km/h (3 Bft) 96,97 %
12.12.2025 05:58 6,6 °C 6,1 °C 2,8 °C 97 % 1020,4 hPa 0,0 l/m² 0 min 0 min 0 W/m² 12,9 km/h (3 Bft) 97,67 %
12.12.2025 06:00 6,6 °C 6,1 °C 2,8 °C 97 % 1020,3 hPa 0,0 l/m² 0 min 0 min 0 W/m² 19,3 km/h (3 Bft) 96,08 %
12.12.2025 06:02 6,6 °C 6,1 °C 2,8 °C 97 % 1020,3 hPa 0,0 l/m² 0 min 0 min 0 W/m² 16,1 km/h (3 Bft) 97,14 %
12.12.2025 06:04 6,6 °C 6,1 °C 2,8 °C 97 % 1020,3 hPa 0,0 l/m² 0 min 0 min 0 W/m² 16,1 km/h (3 Bft) 94,00 %
12.12.2025 06:08 6,6 °C 6,1 °C 2,8 °C 97 % 1020,3 hPa 0,0 l/m² 0 min 0 min 0 W/m² 16,1 km/h (3 Bft) 97,87 %
12.12.2025 06:10 6,6 °C 6,1 °C 2,8 °C 97 % 1020,3 hPa 0,0 l/m² 0 min 0 min 0 W/m² 16,1 km/h (3 Bft) 100,00 %
12.12.2025 06:14 6,6 °C 6,1 °C 2,8 °C 97 % 1020,4 hPa 0,0 l/m² 0 min 0 min 0 W/m² 19,3 km/h (3 Bft) 95,00 %
12.12.2025 06:16 6,6 °C 6,1 °C 2,8 °C 97 % 1020,4 hPa 0,0 l/m² 0 min 0 min 0 W/m² 12,9 km/h (3 Bft) 96,36 %
12.12.2025 06:18 6,6 °C 6,1 °C 2,8 °C 97 % 1020,4 hPa 0,0 l/m² 0 min 0 min 0 W/m² 16,1 km/h (3 Bft) 100,00 %
12.12.2025 06:20 6,6 °C 6,1 °C 3,3 °C 97 % 1020,5 hPa 0,0 l/m² 0 min 0 min 0 W/m² 12,9 km/h (3 Bft) 96,55 %
12.12.2025 06:22 6,7 °C 6,1 °C 3,3 °C 97 % 1020,5 hPa 0,0 l/m² 0 min 0 min 0 W/m² 12,9 km/h (3 Bft) 95,56 %
12.12.2025 06:24 6,7 °C 6,1 °C 3,3 °C 97 % 1020,5 hPa 0,0 l/m² 0 min 0 min 0 W/m² 19,3 km/h (3 Bft) 94,74 %
12.12.2025 06:26 6,7 °C 6,1 °C 3,3 °C 97 % 1020,5 hPa 0,0 l/m² 0 min 0 min 0 W/m² 12,9 km/h (3 Bft) 97,87 %
12.12.2025 06:28 6,7 °C 6,1 °C 3,3 °C 97 % 1020,5 hPa 0,0 l/m² 0 min 0 min 0 W/m² 19,3 km/h (3 Bft) 97,87 %
12.12.2025 06:30 6,7 °C 6,1 °C 3,3 °C 97 % 1020,5 hPa 0,0 l/m² 0 min 0 min 0 W/m² 16,1 km/h (3 Bft) 97,87 %
12.12.2025 06:32 6,7 °C 6,1 °C 3,3 °C 97 % 1020,5 hPa 0,0 l/m² 0 min 0 min 0 W/m² 19,3 km/h (3 Bft) 98,28 %
12.12.2025 06:34 6,7 °C 6,1 °C 3,3 °C 97 % 1020,5 hPa 0,0 l/m² 0 min 0 min 0 W/m² 12,9 km/h (3 Bft) 97,78 %
12.12.2025 06:36 6,7 °C 6,1 °C 3,3 °C 97 % 1020,5 hPa 0,0 l/m² 0 min 0 min 0 W/m² 16,1 km/h (3 Bft) 97,87 %
12.12.2025 06:38 6,8 °C 6,1 °C 3,3 °C 97 % 1020,5 hPa 0,0 l/m² 0 min 0 min 0 W/m² 16,1 km/h (3 Bft) 97,83 %
12.12.2025 06:40 6,8 °C 6,1 °C 3,3 °C 97 % 1020,5 hPa 0,0 l/m² 0 min 0 min 0 W/m² 12,9 km/h (3 Bft) 97,87 %
12.12.2025 06:42 6,8 °C 6,1 °C 3,3 °C 97 % 1020,5 hPa 0,0 l/m² 0 min 0 min 0 W/m² 16,1 km/h (3 Bft) 95,65 %
12.12.2025 06:44 6,8 °C 6,1 °C 3,3 °C 97 % 1020,5 hPa 0,0 l/m² 0 min 0 min 0 W/m² 12,9 km/h (3 Bft) 95,65 %
12.12.2025 06:46 6,8 °C 6,1 °C 3,3 °C 97 % 1020,5 hPa 0,0 l/m² 0 min 0 min 0 W/m² 16,1 km/h (3 Bft) 100,00 %
12.12.2025 06:48 6,8 °C 6,7 °C 3,3 °C 97 % 1020,5 hPa 0,0 l/m² 0 min 0 min 0 W/m² 16,1 km/h (3 Bft) 97,87 %
12.12.2025 06:50 6,9 °C 6,7 °C 3,3 °C 97 % 1020,5 hPa 0,0 l/m² 0 min 0 min 0 W/m² 16,1 km/h (3 Bft) 97,87 %
12.12.2025 06:52 6,9 °C 6,1 °C 3,3 °C 97 % 1020,5 hPa 0,0 l/m² 0 min 0 min 0 W/m² 16,1 km/h (3 Bft) 97,87 %
12.12.2025 06:54 6,9 °C 6,1 °C 3,3 °C 97 % 1020,5 hPa 0,0 l/m² 0 min 0 min 0 W/m² 16,1 km/h (3 Bft) 100,00 %
12.12.2025 06:56 6,9 °C 6,1 °C 3,3 °C 97 % 1020,4 hPa 0,0 l/m² 0 min 0 min 0 W/m² 16,1 km/h (3 Bft) 100,00 %
12.12.2025 06:58 6,9 °C 6,1 °C 3,3 °C 97 % 1020,4 hPa 0,0 l/m² 0 min 0 min 0 W/m² 16,1 km/h (3 Bft) 100,00 %
12.12.2025 07:00 6,9 °C 6,1 °C 3,3 °C 97 % 1020,4 hPa 0,0 l/m² 0 min 0 min 0 W/m² 19,3 km/h (3 Bft) 96,36 %
12.12.2025 07:02 6,9 °C 6,1 °C 3,3 °C 97 % 1020,4 hPa 0,0 l/m² 0 min 0 min 0 W/m² 19,3 km/h (3 Bft) 100,00 %
12.12.2025 07:04 6,9 °C 6,1 °C 3,3 °C 97 % 1020,3 hPa 0,0 l/m² 0 min 0 min 0 W/m² 22,5 km/h (4 Bft) 97,87 %
12.12.2025 07:06 6,9 °C 6,1 °C 3,3 °C 97 % 1020,3 hPa 0,0 l/m² 0 min 0 min 0 W/m² 16,1 km/h (3 Bft) 100,00 %
12.12.2025 07:08 6,9 °C 6,1 °C 3,3 °C 97 % 1020,4 hPa 0,0 l/m² 0 min 0 min 0 W/m² 22,5 km/h (4 Bft) 100,00 %
12.12.2025 07:10 6,9 °C 6,1 °C 3,3 °C 96 % 1020,4 hPa 0,0 l/m² 0 min 0 min 0 W/m² 19,3 km/h (3 Bft) 97,50 %
12.12.2025 07:12 6,9 °C 6,1 °C 3,3 °C 97 % 1020,4 hPa 0,0 l/m² 0 min 0 min 0 W/m² 16,1 km/h (3 Bft) 97,87 %
12.12.2025 07:14 6,9 °C 6,1 °C 3,3 °C 97 % 1020,4 hPa 0,0 l/m² 0 min 0 min 0 W/m² 16,1 km/h (3 Bft) 97,87 %
12.12.2025 07:16 6,9 °C 6,1 °C 3,3 °C 97 % 1020,4 hPa 0,0 l/m² 0 min 0 min 0 W/m² 19,3 km/h (3 Bft) 100,00 %
12.12.2025 07:18 6,9 °C 6,1 °C 3,3 °C 97 % 1020,4 hPa 0,0 l/m² 0 min 0 min 0 W/m² 16,1 km/h (3 Bft) 100,00 %
12.12.2025 07:20 6,9 °C 6,1 °C 3,3 °C 97 % 1020,5 hPa 0,0 l/m² 0 min 0 min 0 W/m² 19,3 km/h (3 Bft) 97,50 %
12.12.2025 07:22 6,9 °C 6,1 °C 3,3 °C 97 % 1020,5 hPa 0,0 l/m² 0 min 0 min 0 W/m² 12,9 km/h (3 Bft) 100,00 %
12.12.2025 07:24 6,9 °C 6,1 °C 3,3 °C 97 % 1020,5 hPa 0,0 l/m² 0 min 0 min 0 W/m² 16,1 km/h (3 Bft) 97,56 %
12.12.2025 07:26 6,9 °C 6,1 °C 3,3 °C 97 % 1020,5 hPa 0,0 l/m² 0 min 0 min 0 W/m² 19,3 km/h (3 Bft) 97,62 %
12.12.2025 07:28 6,9 °C 6,1 °C 3,3 °C 97 % 1020,4 hPa 0,0 l/m² 0 min 0 min 0 W/m² 12,9 km/h (3 Bft) 98,04 %
12.12.2025 07:30 6,9 °C 6,1 °C 3,3 °C 97 % 1020,4 hPa 0,0 l/m² 0 min 0 min 0 W/m² 19,3 km/h (3 Bft) 97,62 %
12.12.2025 07:32 6,9 °C 6,7 °C 3,3 °C 96 % 1020,4 hPa 0,0 l/m² 0 min 0 min 0 W/m² 16,1 km/h (3 Bft) 96,15 %
12.12.2025 07:34 6,9 °C 6,7 °C 3,3 °C 96 % 1020,4 hPa 0,0 l/m² 0 min 0 min 0 W/m² 12,9 km/h (3 Bft) 95,74 %
12.12.2025 07:36 6,9 °C 6,7 °C 3,3 °C 96 % 1020,5 hPa 0,0 l/m² 0 min 0 min 0 W/m² 19,3 km/h (3 Bft) 97,83 %
12.12.2025 07:38 7,0 °C 6,7 °C 3,3 °C 96 % 1020,4 hPa 0,0 l/m² 0 min 0 min 0 W/m² 12,9 km/h (3 Bft) 97,73 %
12.12.2025 07:40 7,0 °C 6,7 °C 3,3 °C 96 % 1020,5 hPa 0,0 l/m² 0 min 0 min 0 W/m² 12,9 km/h (3 Bft) 98,04 %
12.12.2025 07:42 7,0 °C 6,7 °C 3,3 °C 96 % 1020,6 hPa 0,0 l/m² 0 min 0 min 0 W/m² 12,9 km/h (3 Bft) 97,87 %
12.12.2025 07:44 7,1 °C 6,7 °C 3,3 °C 96 % 1020,6 hPa 0,0 l/m² 0 min 0 min 0 W/m² 16,1 km/h (3 Bft) 97,73 %
12.12.2025 07:46 7,1 °C 6,7 °C 3,3 °C 96 % 1020,7 hPa 0,0 l/m² 0 min 0 min 0 W/m² 9,7 km/h (2 Bft) 98,00 %
12.12.2025 07:48 7,1 °C 6,7 °C 3,3 °C 96 % 1020,6 hPa 0,0 l/m² 0 min 0 min 0 W/m² 19,3 km/h (3 Bft) 97,78 %
12.12.2025 07:50 7,1 °C 6,7 °C 3,3 °C 96 % 1020,5 hPa 0,0 l/m² 0 min 0 min 0 W/m² 19,3 km/h (3 Bft) 95,92 %
12.12.2025 07:52 7,1 °C 6,7 °C 3,3 °C 96 % 1020,6 hPa 0,0 l/m² 0 min 0 min 0 W/m² 12,9 km/h (3 Bft) 97,73 %
12.12.2025 07:56 7,1 °C 6,7 °C 3,3 °C 96 % 1020,6 hPa 0,0 l/m² 0 min 0 min 0 W/m² 12,9 km/h (3 Bft) 96,47 %
12.12.2025 07:58 7,1 °C 6,7 °C 3,3 °C 96 % 1020,6 hPa 0,0 l/m² 0 min 0 min 0 W/m² 6,4 km/h (2 Bft) 97,83 %
12.12.2025 08:00 7,1 °C 6,7 °C 3,3 °C 96 % 1020,6 hPa 0,0 l/m² 0 min 0 min 0 W/m² 3,2 km/h (1 Bft) 98,28 %
12.12.2025 08:02 7,1 °C 6,1 °C 3,3 °C 96 % 1020,6 hPa 0,0 l/m² 0 min 0 min 0 W/m² 12,9 km/h (3 Bft) 95,83 %
12.12.2025 08:04 7,1 °C 6,1 °C 3,3 °C 96 % 1020,7 hPa 0,0 l/m² 0 min 0 min 0 W/m² 6,4 km/h (2 Bft) 97,83 %
12.12.2025 08:08 7,1 °C 6,1 °C 3,3 °C 96 % 1020,7 hPa 0,0 l/m² 0 min 0 min 0 W/m² 9,7 km/h (2 Bft) 98,84 %
12.12.2025 08:10 7,1 °C 6,1 °C 3,3 °C 96 % 1020,7 hPa 0,0 l/m² 0 min 0 min 0 W/m² 16,1 km/h (3 Bft) 100,00 %
12.12.2025 08:12 7,1 °C 6,1 °C 3,3 °C 96 % 1020,8 hPa 0,0 l/m² 0 min 0 min 0 W/m² 16,1 km/h (3 Bft) 100,00 %
12.12.2025 08:14 7,1 °C 6,1 °C 3,3 °C 96 % 1020,7 hPa 0,0 l/m² 0 min 0 min 0 W/m² 16,1 km/h (3 Bft) 100,00 %
12.12.2025 08:16 7,1 °C 6,1 °C 3,3 °C 96 % 1020,7 hPa 0,0 l/m² 0 min 0 min 0 W/m² 9,7 km/h (2 Bft) 96,55 %
12.12.2025 08:18 7,1 °C 6,1 °C 3,3 °C 96 % 1020,7 hPa 0,0 l/m² 0 min 0 min 0 W/m² 16,1 km/h (3 Bft) 95,56 %
12.12.2025 08:20 7,1 °C 6,1 °C 3,3 °C 96 % 1020,8 hPa 0,0 l/m² 0 min 0 min 0 W/m² 3,2 km/h (1 Bft) 58,70 %
12.12.2025 08:22 7,1 °C 6,1 °C 3,3 °C 96 % 1020,8 hPa 0,0 l/m² 0 min 0 min 0 W/m² 6,4 km/h (2 Bft) 91,89 %
12.12.2025 08:24 7,1 °C 6,1 °C 3,3 °C 96 % 1020,8 hPa 0,0 l/m² 0 min 0 min 0 W/m² 9,7 km/h (2 Bft) 97,96 %
12.12.2025 08:26 7,1 °C 6,1 °C 3,3 °C 96 % 1020,9 hPa 0,0 l/m² 0 min 0 min 0 W/m² 12,9 km/h (3 Bft) 95,83 %
12.12.2025 08:28 7,1 °C 6,1 °C 3,3 °C 96 % 1020,9 hPa 0,0 l/m² 0 min 0 min 0 W/m² 16,1 km/h (3 Bft) 93,18 %
12.12.2025 08:30 7,1 °C 6,1 °C 3,3 °C 96 % 1020,9 hPa 0,0 l/m² 0 min 0 min 0 W/m² 6,4 km/h (2 Bft) 95,65 %
12.12.2025 08:32 7,1 °C 6,1 °C 3,3 °C 96 % 1020,9 hPa 0,0 l/m² 0 min 0 min 0 W/m² 12,9 km/h (3 Bft) 95,92 %
12.12.2025 08:34 7,1 °C 6,1 °C 3,3 °C 96 % 1020,9 hPa 0,0 l/m² 0 min 0 min 0 W/m² 16,1 km/h (3 Bft) 91,49 %
12.12.2025 08:36 7,1 °C 6,1 °C 3,3 °C 96 % 1021,0 hPa 0,0 l/m² 0 min 0 min 0 W/m² 16,1 km/h (3 Bft) 95,65 %
12.12.2025 08:38 7,1 °C 6,1 °C 3,3 °C 96 % 1021,0 hPa 0,0 l/m² 0 min 0 min 5 W/m² 9,7 km/h (2 Bft) 97,37 %
12.12.2025 08:40 7,1 °C 6,1 °C 3,3 °C 96 % 1021,0 hPa 0,0 l/m² 0 min 0 min 5 W/m² 12,9 km/h (3 Bft) 96,55 %
12.12.2025 08:42 7,1 °C 6,1 °C 3,3 °C 96 % 1021,0 hPa 0,0 l/m² 0 min 0 min 6 W/m² 12,9 km/h (3 Bft) 94,44 %
12.12.2025 08:44 7,1 °C 6,1 °C 3,3 °C 96 % 1021,1 hPa 0,0 l/m² 0 min 0 min 7 W/m² 9,7 km/h (2 Bft) 95,65 %
12.12.2025 08:48 7,1 °C 6,7 °C 3,3 °C 96 % 1021,1 hPa 0,0 l/m² 0 min 0 min 9 W/m² 16,1 km/h (3 Bft) 98,94 %
12.12.2025 08:52 7,1 °C 6,7 °C 3,3 °C 96 % 1021,2 hPa 0,0 l/m² 0 min 0 min 11 W/m² 12,9 km/h (3 Bft) 97,87 %
12.12.2025 08:56 7,1 °C 6,7 °C 3,3 °C 96 % 1021,1 hPa 0,0 l/m² 0 min 0 min 14 W/m² 16,1 km/h (3 Bft) 95,92 %
12.12.2025 09:00 7,1 °C 6,7 °C 3,3 °C 96 % 1021,2 hPa 0,0 l/m² 0 min 0 min 16 W/m² 16,1 km/h (3 Bft) 96,81 %
12.12.2025 09:02 7,1 °C 6,7 °C 3,3 °C 96 % 1021,2 hPa 0,0 l/m² 0 min 0 min 18 W/m² 16,1 km/h (3 Bft) 96,23 %
12.12.2025 09:04 7,1 °C 6,7 °C 3,3 °C 96 % 1021,2 hPa 0,0 l/m² 0 min 0 min 19 W/m² 16,1 km/h (3 Bft) 97,62 %
12.12.2025 09:08 7,1 °C 6,7 °C 3,3 °C 96 % 1021,2 hPa 0,0 l/m² 0 min 0 min 20 W/m² 16,1 km/h (3 Bft) 97,83 %
12.12.2025 09:10 7,1 °C 6,7 °C 3,3 °C 96 % 1021,3 hPa 0,0 l/m² 0 min 0 min 21 W/m² 12,9 km/h (3 Bft) 95,74 %
12.12.2025 09:12 7,1 °C 6,7 °C 3,3 °C 96 % 1021,3 hPa 0,0 l/m² 0 min 0 min 24 W/m² 9,7 km/h (2 Bft) 97,96 %
12.12.2025 09:14 7,1 °C 6,7 °C 3,3 °C 96 % 1021,3 hPa 0,0 l/m² 0 min 0 min 25 W/m² 6,4 km/h (2 Bft) 97,87 %
12.12.2025 09:16 7,1 °C 6,7 °C 3,3 °C 96 % 1021,3 hPa 0,0 l/m² 0 min 0 min 28 W/m² 16,1 km/h (3 Bft) 100,00 %
12.12.2025 09:18 7,1 °C 6,7 °C 3,3 °C 96 % 1021,3 hPa 0,0 l/m² 0 min 0 min 31 W/m² 16,1 km/h (3 Bft) 97,62 %
12.12.2025 09:20 7,1 °C 6,7 °C 3,3 °C 96 % 1021,4 hPa 0,0 l/m² 0 min 0 min 33 W/m² 12,9 km/h (3 Bft) 100,00 %
12.12.2025 09:22 7,2 °C 6,7 °C 3,9 °C 96 % 1021,4 hPa 0,0 l/m² 0 min 0 min 33 W/m² 9,7 km/h (2 Bft) 100,00 %
12.12.2025 09:24 7,2 °C 6,7 °C 3,9 °C 96 % 1021,3 hPa 0,0 l/m² 0 min 0 min 36 W/m² 6,4 km/h (2 Bft) 97,96 %
12.12.2025 09:26 7,2 °C 6,7 °C 3,9 °C 96 % 1021,3 hPa 0,0 l/m² 0 min 0 min 40 W/m² 12,9 km/h (3 Bft) 97,87 %
12.12.2025 09:28 7,2 °C 7,2 °C 3,9 °C 96 % 1021,3 hPa 0,0 l/m² 0 min 0 min 44 W/m² 16,1 km/h (3 Bft) 100,00 %
12.12.2025 09:30 7,2 °C 7,2 °C 3,9 °C 96 % 1021,3 hPa 0,0 l/m² 0 min 0 min 50 W/m² 12,9 km/h (3 Bft) 100,00 %
12.12.2025 09:32 7,2 °C 7,2 °C 3,9 °C 96 % 1021,3 hPa 0,0 l/m² 0 min 0 min 51 W/m² 9,7 km/h (2 Bft) 100,00 %
12.12.2025 09:34 7,3 °C 7,2 °C 3,9 °C 96 % 1021,3 hPa 0,0 l/m² 0 min 0 min 47 W/m² 12,9 km/h (3 Bft) 100,00 %
12.12.2025 09:36 7,3 °C 7,2 °C 3,9 °C 96 % 1021,4 hPa 0,0 l/m² 0 min 0 min 45 W/m² 6,4 km/h (2 Bft) 100,00 %
12.12.2025 09:38 7,3 °C 7,2 °C 3,9 °C 96 % 1021,3 hPa 0,0 l/m² 0 min 0 min 44 W/m² 12,9 km/h (3 Bft) 100,00 %
12.12.2025 09:40 7,3 °C 7,2 °C 3,9 °C 96 % 1021,4 hPa 0,0 l/m² 0 min 0 min 42 W/m² 12,9 km/h (3 Bft) 100,00 %
12.12.2025 09:42 7,3 °C 7,2 °C 3,9 °C 96 % 1021,4 hPa 0,0 l/m² 0 min 0 min 42 W/m² 9,7 km/h (2 Bft) 97,87 %
12.12.2025 09:44 7,3 °C 7,2 °C 3,9 °C 96 % 1021,4 hPa 0,0 l/m² 0 min 0 min 42 W/m² 12,9 km/h (3 Bft) 98,31 %
12.12.2025 09:46 7,3 °C 7,2 °C 3,9 °C 96 % 1021,5 hPa 0,0 l/m² 0 min 0 min 42 W/m² 16,1 km/h (3 Bft) 100,00 %
12.12.2025 09:50 7,3 °C 7,2 °C 3,9 °C 96 % 1021,5 hPa 0,0 l/m² 0 min 0 min 43 W/m² 16,1 km/h (3 Bft) 98,04 %
12.12.2025 09:52 7,4 °C 7,2 °C 3,9 °C 96 % 1021,6 hPa 0,0 l/m² 0 min 0 min 41 W/m² 16,1 km/h (3 Bft) 98,00 %
12.12.2025 09:54 7,4 °C 7,2 °C 3,9 °C 96 % 1021,6 hPa 0,0 l/m² 0 min 0 min 40 W/m² 6,4 km/h (2 Bft) 100,00 %
12.12.2025 09:56 7,4 °C 7,2 °C 3,9 °C 96 % 1021,6 hPa 0,0 l/m² 0 min 0 min 40 W/m² 9,7 km/h (2 Bft) 93,62 %
12.12.2025 09:58 7,4 °C 7,2 °C 3,9 °C 96 % 1021,7 hPa 0,0 l/m² 0 min 0 min 42 W/m² 12,9 km/h (3 Bft) 100,00 %
12.12.2025 10:00 7,4 °C 7,2 °C 3,9 °C 96 % 1021,7 hPa 0,0 l/m² 0 min 0 min 45 W/m² 16,1 km/h (3 Bft) 100,00 %
12.12.2025 10:02 7,4 °C 7,2 °C 3,9 °C 96 % 1021,7 hPa 0,0 l/m² 0 min 0 min 47 W/m² 6,4 km/h (2 Bft) 97,67 %
12.12.2025 10:04 7,4 °C 7,2 °C 3,9 °C 96 % 1021,7 hPa 0,0 l/m² 0 min 0 min 50 W/m² 9,7 km/h (2 Bft) 98,04 %
12.12.2025 10:08 7,4 °C 7,2 °C 3,9 °C 96 % 1021,8 hPa 0,0 l/m² 0 min 0 min 62 W/m² 12,9 km/h (3 Bft) 95,70 %
12.12.2025 10:09 7,5 °C 7,8 °C 3,9 °C 96 % 1021,8 hPa 0,0 l/m² 0 min 0 min 65 W/m² 6,4 km/h (2 Bft) 97,31 %
12.12.2025 10:10 7,5 °C 7,8 °C 3,9 °C 96 % 1021,8 hPa 0,0 l/m² 0 min 0 min 63 W/m² 9,7 km/h (2 Bft) 98,25 %
12.12.2025 10:14 7,5 °C 7,8 °C 4,4 °C 96 % 1021,8 hPa 0,0 l/m² 0 min 0 min 56 W/m² 6,4 km/h (2 Bft) 93,62 %
12.12.2025 10:18 7,6 °C 7,8 °C 4,4 °C 96 % 1021,9 hPa 0,0 l/m² 0 min 0 min 69 W/m² 12,9 km/h (3 Bft) 93,81 %
12.12.2025 10:22 7,6 °C 7,8 °C 4,4 °C 96 % 1022,0 hPa 0,0 l/m² 0 min 0 min 74 W/m² 6,4 km/h (2 Bft) 95,74 %
12.12.2025 10:26 7,7 °C 8,3 °C 4,4 °C 96 % 1022,0 hPa 0,0 l/m² 0 min 0 min 94 W/m² 16,1 km/h (3 Bft) 95,65 %
12.12.2025 10:30 7,8 °C 8,3 °C 5,0 °C 96 % 1022,0 hPa 0,0 l/m² 4 min 0 min 115 W/m² 12,9 km/h (3 Bft) 94,74 %
12.12.2025 10:34 7,9 °C 8,9 °C 5,0 °C 96 % 1022,0 hPa 0,0 l/m² 4 min 0 min 117 W/m² 12,9 km/h (3 Bft) 95,65 %
12.12.2025 10:38 8,0 °C 8,9 °C 5,0 °C 96 % 1022,0 hPa 0,0 l/m² 0 min 0 min 105 W/m² 16,1 km/h (3 Bft) 94,79 %
12.12.2025 10:42 8,1 °C 8,9 °C 5,0 °C 96 % 1022,0 hPa 0,0 l/m² 0 min 0 min 96 W/m² 12,9 km/h (3 Bft) 96,81 %
12.12.2025 10:46 8,2 °C 8,9 °C 5,0 °C 96 % 1021,9 hPa 0,0 l/m² 0 min 0 min 103 W/m² 19,3 km/h (3 Bft) 96,63 %
12.12.2025 10:50 8,3 °C 8,3 °C 5,0 °C 96 % 1022,0 hPa 0,0 l/m² 0 min 0 min 81 W/m² 19,3 km/h (3 Bft) 95,96 %
12.12.2025 10:51 8,3 °C 8,3 °C 5,0 °C 96 % 1022,0 hPa 0,0 l/m² 0 min 0 min 68 W/m² 9,7 km/h (2 Bft) 97,10 %
12.12.2025 10:52 8,3 °C 8,3 °C 5,0 °C 96 % 1022,0 hPa 0,0 l/m² 0 min 0 min 64 W/m² 6,4 km/h (2 Bft) 97,10 %
12.12.2025 10:58 8,3 °C 8,3 °C 5,0 °C 96 % 1022,1 hPa 0,0 l/m² 0 min 0 min 56 W/m² 16,1 km/h (3 Bft) 100,00 %
12.12.2025 11:02 8,4 °C 8,3 °C 5,0 °C 96 % 1022,1 hPa 0,0 l/m² 0 min 0 min 58 W/m² 16,1 km/h (3 Bft) 100,00 %
12.12.2025 11:06 8,4 °C 8,3 °C 5,0 °C 95 % 1022,1 hPa 0,0 l/m² 0 min 0 min 62 W/m² 12,9 km/h (3 Bft) 100,00 %
12.12.2025 11:10 8,4 °C 8,3 °C 5,0 °C 95 % 1022,1 hPa 0,0 l/m² 0 min 0 min 66 W/m² 12,9 km/h (3 Bft) 100,00 %
12.12.2025 11:14 8,5 °C 8,3 °C 5,0 °C 95 % 1022,1 hPa 0,0 l/m² 0 min 0 min 55 W/m² 22,5 km/h (4 Bft) 96,59 %
12.12.2025 11:16 8,5 °C 8,3 °C 5,0 °C 95 % 1022,1 hPa 0,0 l/m² 0 min 0 min 65 W/m² 19,3 km/h (3 Bft) 98,28 %
12.12.2025 11:18 8,5 °C 8,3 °C 5,0 °C 95 % 1022,1 hPa 0,0 l/m² 0 min 0 min 69 W/m² 12,9 km/h (3 Bft) 97,67 %
12.12.2025 11:22 8,6 °C 8,3 °C 5,0 °C 95 % 1022,0 hPa 0,0 l/m² 0 min 0 min 92 W/m² 12,9 km/h (3 Bft) 97,73 %
12.12.2025 11:26 8,6 °C 8,9 °C 5,0 °C 95 % 1022,0 hPa 0,0 l/m² 0 min 0 min 118 W/m² 16,1 km/h (3 Bft) 96,81 %
12.12.2025 11:30 8,6 °C 8,9 °C 5,6 °C 95 % 1022,0 hPa 0,0 l/m² 4 min 0 min 148 W/m² 16,1 km/h (3 Bft) 95,35 %
12.12.2025 11:32 8,6 °C 9,4 °C 5,6 °C 95 % 1022,0 hPa 0,0 l/m² 0 min 0 min 124 W/m² 12,9 km/h (3 Bft) 97,87 %
12.12.2025 11:33 8,7 °C 9,4 °C 5,6 °C 95 % 1022,0 hPa 0,0 l/m² 0 min 0 min 127 W/m² 6,4 km/h (2 Bft) 95,65 %
12.12.2025 11:35 8,7 °C 9,4 °C 5,6 °C 95 % 1022,0 hPa 0,0 l/m² 0 min 0 min 133 W/m² 16,1 km/h (3 Bft) 99,12 %
12.12.2025 11:38 8,8 °C 9,4 °C 5,6 °C 95 % 1022,0 hPa 0,0 l/m² 3 min 0 min 166 W/m² 9,7 km/h (2 Bft) 98,21 %
12.12.2025 11:42 8,8 °C 9,4 °C 5,6 °C 95 % 1021,9 hPa 0,0 l/m² 0 min 0 min 140 W/m² 16,1 km/h (3 Bft) 95,24 %
12.12.2025 11:44 8,9 °C 9,4 °C 5,6 °C 95 % 1021,9 hPa 0,0 l/m² 0 min 0 min 111 W/m² 12,9 km/h (3 Bft) 98,15 %
12.12.2025 11:45 8,9 °C 9,4 °C 5,6 °C 95 % 1021,9 hPa 0,0 l/m² 0 min 0 min 100 W/m² 3,2 km/h (1 Bft) 97,20 %
12.12.2025 11:50 9,0 °C 9,4 °C 5,6 °C 95 % 1021,8 hPa 0,0 l/m² 0 min 0 min 92 W/m² 19,3 km/h (3 Bft) 97,87 %
12.12.2025 11:54 9,0 °C 8,9 °C 5,6 °C 94 % 1021,8 hPa 0,0 l/m² 0 min 0 min 98 W/m² 16,1 km/h (3 Bft) 98,08 %
12.12.2025 11:58 9,1 °C 8,9 °C 5,6 °C 94 % 1021,9 hPa 0,0 l/m² 0 min 0 min 94 W/m² 19,3 km/h (3 Bft) 97,62 %
12.12.2025 12:02 9,1 °C 8,9 °C 5,6 °C 94 % 1021,9 hPa 0,0 l/m² 0 min 0 min 102 W/m² 22,5 km/h (4 Bft) 100,00 %
12.12.2025 12:05 9,1 °C 9,4 °C 5,6 °C 94 % 1021,8 hPa 0,0 l/m² 0 min 0 min 125 W/m² 22,5 km/h (4 Bft) 100,00 %
12.12.2025 12:06 9,1 °C 9,4 °C 5,6 °C 94 % 1021,8 hPa 0,0 l/m² 0 min 0 min 123 W/m² 22,5 km/h (4 Bft) 100,00 %
12.12.2025 12:10 9,2 °C 9,4 °C 6,1 °C 94 % 1021,8 hPa 0,0 l/m² 0 min 0 min 123 W/m² 22,5 km/h (4 Bft) 97,97 %
12.12.2025 12:14 9,2 °C 9,4 °C 6,1 °C 94 % 1021,8 hPa 0,0 l/m² 0 min 0 min 127 W/m² 12,9 km/h (3 Bft) 97,67 %
12.12.2025 12:18 9,3 °C 10,0 °C 6,1 °C 94 % 1021,9 hPa 0,0 l/m² 0 min 0 min 146 W/m² 19,3 km/h (3 Bft) 97,92 %
12.12.2025 12:22 9,4 °C 10,6 °C 6,1 °C 94 % 1021,8 hPa 0,0 l/m² 4 min 0 min 243 W/m² 19,3 km/h (3 Bft) 96,81 %
12.12.2025 12:26 9,6 °C 11,1 °C 6,7 °C 94 % 1021,8 hPa 0,0 l/m² 4 min 0 min 269 W/m² 19,3 km/h (3 Bft) 95,70 %
12.12.2025 12:30 9,6 °C 11,1 °C 6,7 °C 94 % 1021,7 hPa 0,0 l/m² 4 min 0 min 168 W/m² 12,9 km/h (3 Bft) 97,87 %
12.12.2025 12:34 9,7 °C 10,6 °C 6,7 °C 94 % 1021,8 hPa 0,0 l/m² 0 min 0 min 116 W/m² 16,1 km/h (3 Bft) 97,73 %
12.12.2025 12:38 9,8 °C 10,0 °C 6,7 °C 93 % 1021,8 hPa 0,0 l/m² 0 min 0 min 130 W/m² 19,3 km/h (3 Bft) 95,45 %
12.12.2025 12:42 9,9 °C 11,1 °C 6,7 °C 93 % 1021,6 hPa 0,0 l/m² 4 min 0 min 184 W/m² 16,1 km/h (3 Bft) 97,17 %
12.12.2025 12:46 10,0 °C 11,7 °C 6,7 °C 93 % 1021,5 hPa 0,0 l/m² 4 min 0 min 202 W/m² 16,1 km/h (3 Bft) 97,78 %
12.12.2025 12:50 10,1 °C 11,7 °C 6,7 °C 93 % 1021,5 hPa 0,0 l/m² 4 min 0 min 196 W/m² 19,3 km/h (3 Bft) 97,94 %
12.12.2025 12:54 10,1 °C 11,7 °C 6,7 °C 93 % 1021,5 hPa 0,0 l/m² 4 min 0 min 188 W/m² 16,1 km/h (3 Bft) 96,34 %
12.12.2025 12:58 10,2 °C 11,7 °C 6,7 °C 92 % 1021,5 hPa 0,0 l/m² 4 min 0 min 169 W/m² 19,3 km/h (3 Bft) 98,94 %
12.12.2025 13:02 10,3 °C 11,7 °C 6,7 °C 92 % 1021,6 hPa 0,0 l/m² 4 min 0 min 186 W/m² 19,3 km/h (3 Bft) 98,11 %
12.12.2025 13:06 10,4 °C 11,7 °C 6,7 °C 92 % 1021,6 hPa 0,0 l/m² 4 min 0 min 188 W/m² 19,3 km/h (3 Bft) 100,00 %
12.12.2025 13:10 10,4 °C 12,2 °C 6,7 °C 91 % 1021,8 hPa 0,0 l/m² 4 min 0 min 203 W/m² 16,1 km/h (3 Bft) 98,94 %
12.12.2025 13:12 10,5 °C 12,8 °C 6,7 °C 91 % 1021,8 hPa 0,0 l/m² 2 min 0 min 258 W/m² 16,1 km/h (3 Bft) 97,37 %
12.12.2025 13:14 10,6 °C 12,8 °C 6,7 °C 91 % 1021,8 hPa 0,0 l/m² 2 min 0 min 213 W/m² 6,4 km/h (2 Bft) 98,15 %
12.12.2025 13:16 10,6 °C 12,2 °C 7,2 °C 91 % 1021,8 hPa 0,0 l/m² 2 min 0 min 148 W/m² 16,1 km/h (3 Bft) 97,44 %
12.12.2025 13:18 10,7 °C 11,7 °C 7,2 °C 91 % 1021,9 hPa 0,0 l/m² 0 min 0 min 120 W/m² 19,3 km/h (3 Bft) 97,87 %
12.12.2025 13:20 10,7 °C 11,1 °C 7,2 °C 90 % 1021,9 hPa 0,0 l/m² 0 min 0 min 114 W/m² 6,4 km/h (2 Bft) 96,30 %
12.12.2025 13:22 10,7 °C 11,1 °C 7,2 °C 90 % 1021,9 hPa 0,0 l/m² 0 min 0 min 113 W/m² 12,9 km/h (3 Bft) 94,74 %
12.12.2025 13:24 10,8 °C 11,1 °C 7,2 °C 90 % 1021,9 hPa 0,0 l/m² 0 min 0 min 118 W/m² 16,1 km/h (3 Bft) 97,96 %
12.12.2025 13:26 10,8 °C 11,1 °C 7,2 °C 90 % 1021,8 hPa 0,0 l/m² 0 min 0 min 120 W/m² 12,9 km/h (3 Bft) 97,87 %
12.12.2025 13:28 10,8 °C 11,1 °C 7,2 °C 90 % 1021,7 hPa 0,0 l/m² 0 min 0 min 115 W/m² 12,9 km/h (3 Bft) 97,87 %
12.12.2025 13:30 10,8 °C 11,1 °C 7,2 °C 90 % 1021,7 hPa 0,0 l/m² 0 min 0 min 123 W/m² 16,1 km/h (3 Bft) 97,87 %
12.12.2025 13:32 10,8 °C 11,1 °C 6,7 °C 90 % 1021,7 hPa 0,0 l/m² 0 min 0 min 138 W/m² 16,1 km/h (3 Bft) 93,18 %
12.12.2025 13:34 10,8 °C 11,7 °C 6,7 °C 89 % 1021,6 hPa 0,0 l/m² 2 min 0 min 148 W/m² 12,9 km/h (3 Bft) 97,96 %
12.12.2025 13:36 10,8 °C 11,7 °C 6,7 °C 89 % 1021,6 hPa 0,0 l/m² 2 min 0 min 158 W/m² 12,9 km/h (3 Bft) 95,74 %
12.12.2025 13:38 10,8 °C 11,1 °C 6,7 °C 89 % 1021,6 hPa 0,0 l/m² 0 min 0 min 133 W/m² 16,1 km/h (3 Bft) 95,74 %
12.12.2025 13:40 10,9 °C 11,1 °C 6,7 °C 89 % 1021,7 hPa 0,0 l/m² 0 min 0 min 125 W/m² 16,1 km/h (3 Bft) 98,15 %
12.12.2025 13:42 10,9 °C 11,1 °C 6,7 °C 89 % 1021,7 hPa 0,0 l/m² 0 min 0 min 117 W/m² 9,7 km/h (2 Bft) 97,44 %
12.12.2025 13:44 10,9 °C 11,1 °C 6,7 °C 89 % 1021,8 hPa 0,0 l/m² 0 min 0 min 115 W/m² 19,3 km/h (3 Bft) 97,87 %
12.12.2025 13:46 10,9 °C 11,1 °C 6,7 °C 89 % 1021,8 hPa 0,0 l/m² 2 min 0 min 134 W/m² 12,9 km/h (3 Bft) 95,83 %
12.12.2025 13:48 10,9 °C 11,1 °C 6,7 °C 89 % 1021,8 hPa 0,0 l/m² 2 min 0 min 150 W/m² 16,1 km/h (3 Bft) 97,73 %
12.12.2025 13:50 10,9 °C 11,1 °C 6,7 °C 89 % 1021,8 hPa 0,0 l/m² 2 min 0 min 142 W/m² 12,9 km/h (3 Bft) 94,64 %
12.12.2025 13:52 10,9 °C 11,1 °C 6,7 °C 89 % 1021,8 hPa 0,0 l/m² 2 min 0 min 134 W/m² 16,1 km/h (3 Bft) 95,12 %
12.12.2025 13:54 10,9 °C 11,1 °C 6,7 °C 89 % 1021,9 hPa 0,0 l/m² 0 min 0 min 122 W/m² 9,7 km/h (2 Bft) 95,56 %
12.12.2025 13:56 10,9 °C 11,1 °C 6,7 °C 89 % 1021,9 hPa 0,0 l/m² 0 min 0 min 101 W/m² 22,5 km/h (4 Bft) 96,36 %
12.12.2025 13:58 10,9 °C 11,1 °C 6,7 °C 89 % 1022,0 hPa 0,0 l/m² 0 min 0 min 91 W/m² 16,1 km/h (3 Bft) 95,12 %
12.12.2025 14:00 10,9 °C 10,6 °C 6,7 °C 89 % 1022,0 hPa 0,0 l/m² 0 min 0 min 88 W/m² 6,4 km/h (2 Bft) 95,45 %
12.12.2025 14:02 10,9 °C 11,1 °C 6,7 °C 89 % 1022,1 hPa 0,0 l/m² 0 min 0 min 84 W/m² 9,7 km/h (2 Bft) 90,91 %
12.12.2025 14:04 10,9 °C 10,6 °C 6,7 °C 89 % 1022,1 hPa 0,0 l/m² 0 min 0 min 85 W/m² 9,7 km/h (2 Bft) 97,67 %
12.12.2025 14:06 10,9 °C 10,6 °C 6,7 °C 89 % 1022,1 hPa 0,0 l/m² 0 min 0 min 99 W/m² 16,1 km/h (3 Bft) 93,48 %
12.12.2025 14:08 10,9 °C 10,6 °C 6,7 °C 89 % 1022,1 hPa 0,0 l/m² 0 min 0 min 108 W/m² 12,9 km/h (3 Bft) 95,83 %
12.12.2025 14:10 10,9 °C 10,6 °C 7,2 °C 89 % 1022,1 hPa 0,0 l/m² 0 min 0 min 98 W/m² 12,9 km/h (3 Bft) 97,62 %
12.12.2025 14:12 10,9 °C 10,6 °C 7,2 °C 89 % 1022,1 hPa 0,0 l/m² 0 min 0 min 86 W/m² 16,1 km/h (3 Bft) 97,96 %
12.12.2025 14:14 10,9 °C 10,6 °C 7,2 °C 89 % 1022,1 hPa 0,0 l/m² 0 min 0 min 89 W/m² 12,9 km/h (3 Bft) 97,96 %
12.12.2025 14:16 10,9 °C 10,6 °C 6,7 °C 89 % 1022,0 hPa 0,0 l/m² 0 min 0 min 87 W/m² 16,1 km/h (3 Bft) 97,78 %
12.12.2025 14:18 10,9 °C 10,6 °C 6,7 °C 89 % 1021,9 hPa 0,0 l/m² 0 min 0 min 72 W/m² 12,9 km/h (3 Bft) 97,92 %
12.12.2025 14:20 10,9 °C 10,6 °C 6,7 °C 89 % 1021,9 hPa 0,0 l/m² 0 min 0 min 69 W/m² 12,9 km/h (3 Bft) 97,78 %
12.12.2025 14:22 10,9 °C 10,6 °C 6,7 °C 89 % 1021,9 hPa 0,0 l/m² 0 min 0 min 73 W/m² 12,9 km/h (3 Bft) 95,65 %
12.12.2025 14:24 10,9 °C 10,6 °C 6,7 °C 89 % 1021,9 hPa 0,0 l/m² 0 min 0 min 83 W/m² 6,4 km/h (2 Bft) 96,08 %
12.12.2025 14:28 10,9 °C 10,6 °C 6,7 °C 89 % 1022,0 hPa 0,0 l/m² 0 min 0 min 80 W/m² 6,4 km/h (2 Bft) 96,81 %
12.12.2025 14:30 10,9 °C 10,6 °C 6,7 °C 89 % 1021,9 hPa 0,0 l/m² 0 min 0 min 70 W/m² 6,4 km/h (2 Bft) 97,87 %
12.12.2025 14:34 10,9 °C 10,6 °C 6,7 °C 89 % 1021,9 hPa 0,0 l/m² 0 min 0 min 69 W/m² 6,4 km/h (2 Bft) 97,87 %
12.12.2025 14:36 10,9 °C 10,6 °C 6,7 °C 89 % 1021,9 hPa 0,0 l/m² 0 min 0 min 70 W/m² 12,9 km/h (3 Bft) 97,87 %
12.12.2025 14:38 10,9 °C 10,6 °C 6,7 °C 89 % 1021,9 hPa 0,0 l/m² 0 min 0 min 70 W/m² 6,4 km/h (2 Bft) 97,87 %
12.12.2025 14:40 10,9 °C 10,6 °C 6,7 °C 89 % 1022,0 hPa 0,0 l/m² 0 min 0 min 70 W/m² 6,4 km/h (2 Bft) 97,83 %
12.12.2025 14:42 10,9 °C 10,6 °C 6,7 °C 89 % 1022,0 hPa 0,0 l/m² 0 min 0 min 70 W/m² 6,4 km/h (2 Bft) 95,56 %
12.12.2025 14:44 10,9 °C 10,6 °C 6,7 °C 89 % 1021,9 hPa 0,0 l/m² 0 min 0 min 74 W/m² 6,4 km/h (2 Bft) 95,92 %
12.12.2025 14:46 10,9 °C 10,6 °C 6,7 °C 90 % 1021,9 hPa 0,0 l/m² 0 min 0 min 71 W/m² 6,4 km/h (2 Bft) 97,78 %
12.12.2025 14:48 10,9 °C 10,6 °C 6,7 °C 90 % 1022,0 hPa 0,0 l/m² 0 min 0 min 68 W/m² 9,7 km/h (2 Bft) 97,83 %
12.12.2025 14:50 10,9 °C 10,6 °C 6,7 °C 90 % 1021,9 hPa 0,0 l/m² 0 min 0 min 67 W/m² 6,4 km/h (2 Bft) 97,83 %
12.12.2025 14:52 10,9 °C 10,6 °C 6,7 °C 90 % 1022,0 hPa 0,0 l/m² 0 min 0 min 65 W/m² 12,9 km/h (3 Bft) 97,44 %
12.12.2025 14:54 10,9 °C 10,6 °C 6,7 °C 90 % 1021,9 hPa 0,0 l/m² 0 min 0 min 66 W/m² 6,4 km/h (2 Bft) 98,31 %
12.12.2025 14:56 10,9 °C 10,6 °C 6,7 °C 90 % 1021,9 hPa 0,0 l/m² 0 min 0 min 74 W/m² 6,4 km/h (2 Bft) 95,74 %
12.12.2025 14:58 10,9 °C 10,6 °C 6,7 °C 90 % 1022,0 hPa 0,0 l/m² 0 min 0 min 69 W/m² 6,4 km/h (2 Bft) 97,73 %
12.12.2025 15:00 10,9 °C 10,6 °C 6,7 °C 90 % 1021,9 hPa 0,0 l/m² 0 min 0 min 66 W/m² 3,2 km/h (1 Bft) 97,92 %
12.12.2025 15:02 10,9 °C 10,6 °C 6,7 °C 90 % 1022,0 hPa 0,0 l/m² 0 min 0 min 65 W/m² 12,9 km/h (3 Bft) 100,00 %
12.12.2025 15:04 10,9 °C 10,6 °C 6,7 °C 90 % 1021,9 hPa 0,0 l/m² 0 min 0 min 59 W/m² 9,7 km/h (2 Bft) 97,67 %
12.12.2025 15:06 10,9 °C 10,6 °C 6,7 °C 90 % 1021,9 hPa 0,0 l/m² 0 min 0 min 58 W/m² 12,9 km/h (3 Bft) 100,00 %
12.12.2025 15:08 10,9 °C 10,6 °C 6,7 °C 90 % 1021,8 hPa 0,0 l/m² 0 min 0 min 58 W/m² 6,4 km/h (2 Bft) 100,00 %
12.12.2025 15:10 10,9 °C 10,6 °C 6,7 °C 90 % 1021,9 hPa 0,0 l/m² 0 min 0 min 51 W/m² 6,4 km/h (2 Bft) 100,00 %
12.12.2025 15:12 10,9 °C 10,0 °C 6,7 °C 90 % 1021,9 hPa 0,0 l/m² 0 min 0 min 38 W/m² 6,4 km/h (2 Bft) 97,87 %
12.12.2025 15:14 10,9 °C 10,0 °C 6,7 °C 90 % 1021,9 hPa 0,0 l/m² 0 min 0 min 32 W/m² 12,9 km/h (3 Bft) 100,00 %
12.12.2025 15:16 10,9 °C 10,0 °C 6,7 °C 90 % 1021,9 hPa 0,0 l/m² 0 min 0 min 26 W/m² 6,4 km/h (2 Bft) 100,00 %
12.12.2025 15:18 10,8 °C 10,0 °C 6,7 °C 90 % 1022,0 hPa 0,0 l/m² 0 min 0 min 22 W/m² 6,4 km/h (2 Bft) 100,00 %
12.12.2025 15:20 10,8 °C 10,0 °C 6,7 °C 90 % 1022,1 hPa 0,0 l/m² 0 min 0 min 18 W/m² 9,7 km/h (2 Bft) 100,00 %
12.12.2025 15:22 10,8 °C 10,0 °C 6,7 °C 90 % 1022,0 hPa 0,0 l/m² 0 min 0 min 18 W/m² 6,4 km/h (2 Bft) 100,00 %
12.12.2025 15:24 10,8 °C 10,0 °C 6,7 °C 90 % 1022,0 hPa 0,0 l/m² 0 min 0 min 18 W/m² 9,7 km/h (2 Bft) 100,00 %
12.12.2025 15:26 10,8 °C 10,0 °C 6,1 °C 90 % 1022,1 hPa 0,0 l/m² 0 min 0 min 17 W/m² 6,4 km/h (2 Bft) 100,00 %
12.12.2025 15:28 10,7 °C 10,0 °C 6,1 °C 90 % 1022,1 hPa 0,0 l/m² 0 min 0 min 13 W/m² 6,4 km/h (2 Bft) 100,00 %
12.12.2025 15:30 10,7 °C 10,0 °C 6,1 °C 90 % 1022,1 hPa 0,0 l/m² 0 min 0 min 12 W/m² 12,9 km/h (3 Bft) 100,00 %
12.12.2025 15:32 10,7 °C 10,0 °C 6,1 °C 90 % 1022,1 hPa 0,0 l/m² 0 min 0 min 12 W/m² 6,4 km/h (2 Bft) 100,00 %
12.12.2025 15:34 10,7 °C 10,0 °C 6,1 °C 90 % 1022,2 hPa 0,0 l/m² 0 min 0 min 12 W/m² 12,9 km/h (3 Bft) 100,00 %
12.12.2025 15:36 10,7 °C 10,0 °C 6,1 °C 90 % 1022,2 hPa 0,0 l/m² 0 min 0 min 11 W/m² 6,4 km/h (2 Bft) 100,00 %
12.12.2025 15:38 10,7 °C 10,0 °C 6,1 °C 90 % 1022,2 hPa 0,0 l/m² 0 min 0 min 11 W/m² 9,7 km/h (2 Bft) 100,00 %
12.12.2025 15:40 10,6 °C 10,0 °C 6,1 °C 90 % 1022,2 hPa 0,0 l/m² 0 min 0 min 12 W/m² 9,7 km/h (2 Bft) 100,00 %
12.12.2025 15:42 10,6 °C 10,0 °C 6,1 °C 90 % 1022,1 hPa 0,0 l/m² 0 min 0 min 12 W/m² 6,4 km/h (2 Bft) 98,15 %
12.12.2025 15:44 10,6 °C 10,0 °C 6,1 °C 90 % 1022,2 hPa 0,0 l/m² 0 min 0 min 12 W/m² 12,9 km/h (3 Bft) 100,00 %
12.12.2025 15:46 10,6 °C 10,0 °C 6,1 °C 90 % 1022,1 hPa 0,0 l/m² 0 min 0 min 12 W/m² 12,9 km/h (3 Bft) 95,74 %
12.12.2025 15:48 10,6 °C 10,0 °C 6,1 °C 90 % 1022,2 hPa 0,0 l/m² 0 min 0 min 11 W/m² 6,4 km/h (2 Bft) 100,00 %
12.12.2025 15:50 10,6 °C 9,4 °C 6,1 °C 90 % 1022,2 hPa 0,0 l/m² 0 min 0 min 11 W/m² 9,7 km/h (2 Bft) 100,00 %
12.12.2025 15:52 10,6 °C 9,4 °C 6,1 °C 91 % 1022,2 hPa 0,0 l/m² 0 min 0 min 12 W/m² 9,7 km/h (2 Bft) 97,92 %
12.12.2025 15:54 10,5 °C 9,4 °C 6,1 °C 91 % 1022,1 hPa 0,0 l/m² 0 min 0 min 12 W/m² 12,9 km/h (3 Bft) 100,00 %
12.12.2025 15:56 10,5 °C 9,4 °C 6,1 °C 91 % 1022,1 hPa 0,0 l/m² 0 min 0 min 12 W/m² 12,9 km/h (3 Bft) 97,87 %
12.12.2025 16:00 10,4 °C 9,4 °C 6,1 °C 91 % 1022,1 hPa 0,0 l/m² 0 min 0 min 10 W/m² 6,4 km/h (2 Bft) 97,85 %
12.12.2025 16:02 10,4 °C 9,4 °C 6,1 °C 91 % 1022,1 hPa 0,0 l/m² 0 min 0 min 9 W/m² 6,4 km/h (2 Bft) 100,00 %
12.12.2025 16:06 10,4 °C 9,4 °C 6,1 °C 91 % 1022,1 hPa 0,0 l/m² 0 min 0 min 7 W/m² 6,4 km/h (2 Bft) 98,98 %
12.12.2025 16:10 10,4 °C 9,4 °C 6,1 °C 91 % 1022,2 hPa 0,0 l/m² 0 min 0 min 5 W/m² 6,4 km/h (2 Bft) 98,94 %
12.12.2025 16:12 10,3 °C 9,4 °C 6,1 °C 91 % 1022,2 hPa 0,0 l/m² 0 min 0 min 5 W/m² 6,4 km/h (2 Bft) 100,00 %
12.12.2025 16:16 10,3 °C 9,4 °C 6,1 °C 91 % 1022,2 hPa 0,0 l/m² 0 min 0 min 2 W/m² 12,9 km/h (3 Bft) 98,94 %
12.12.2025 16:18 10,3 °C 9,4 °C 6,1 °C 91 % 1022,2 hPa 0,0 l/m² 0 min 0 min 0 W/m² 12,9 km/h (3 Bft) 97,14 %
12.12.2025 16:20 10,3 °C 9,4 °C 6,1 °C 91 % 1022,2 hPa 0,0 l/m² 0 min 0 min 0 W/m² 12,9 km/h (3 Bft) 92,98 %
12.12.2025 16:22 10,3 °C 9,4 °C 6,1 °C 91 % 1022,2 hPa 0,0 l/m² 0 min 0 min 0 W/m² 9,7 km/h (2 Bft) 95,83 %
12.12.2025 16:24 10,3 °C 9,4 °C 6,1 °C 91 % 1022,2 hPa 0,0 l/m² 0 min 0 min 0 W/m² 16,1 km/h (3 Bft) 95,74 %
12.12.2025 16:26 10,3 °C 9,4 °C 6,1 °C 91 % 1022,2 hPa 0,0 l/m² 0 min 0 min 0 W/m² 6,4 km/h (2 Bft) 95,74 %
12.12.2025 16:28 10,2 °C 9,4 °C 6,1 °C 91 % 1022,2 hPa 0,0 l/m² 0 min 0 min 0 W/m² 12,9 km/h (3 Bft) 100,00 %
12.12.2025 16:30 10,2 °C 9,4 °C 6,1 °C 91 % 1022,2 hPa 0,0 l/m² 0 min 0 min 0 W/m² 12,9 km/h (3 Bft) 89,36 %
12.12.2025 16:32 10,2 °C 9,4 °C 6,1 °C 91 % 1022,2 hPa 0,0 l/m² 0 min 0 min 0 W/m² 6,4 km/h (2 Bft) 93,18 %
12.12.2025 16:36 10,2 °C 9,4 °C 6,1 °C 91 % 1022,3 hPa 0,0 l/m² 0 min 0 min 0 W/m² 12,9 km/h (3 Bft) 92,78 %
12.12.2025 16:40 10,2 °C 9,4 °C 6,1 °C 91 % 1022,4 hPa 0,0 l/m² 0 min 0 min 0 W/m² 9,7 km/h (2 Bft) 91,49 %
12.12.2025 16:44 10,2 °C 9,4 °C 6,1 °C 91 % 1022,4 hPa 0,0 l/m² 0 min 0 min 0 W/m² 9,7 km/h (2 Bft) 92,68 %
12.12.2025 16:46 10,1 °C 9,4 °C 6,1 °C 91 % 1022,3 hPa 0,0 l/m² 0 min 0 min 0 W/m² 12,9 km/h (3 Bft) 95,65 %
12.12.2025 16:48 10,1 °C 9,4 °C 6,1 °C 91 % 1022,4 hPa 0,0 l/m² 0 min 0 min 0 W/m² 6,4 km/h (2 Bft) 93,83 %
12.12.2025 16:52 10,1 °C 9,4 °C 6,1 °C 92 % 1022,3 hPa 0,0 l/m² 0 min 0 min 0 W/m² 16,1 km/h (3 Bft) 88,57 %
12.12.2025 16:56 10,1 °C 9,4 °C 5,6 °C 92 % 1022,2 hPa 0,0 l/m² 0 min 0 min 0 W/m² 12,9 km/h (3 Bft) 92,45 %
12.12.2025 16:58 10,1 °C 9,4 °C 5,6 °C 92 % 1022,2 hPa 0,0 l/m² 0 min 0 min 0 W/m² 12,9 km/h (3 Bft) 91,49 %
12.12.2025 17:00 10,1 °C 9,4 °C 5,6 °C 92 % 1022,2 hPa 0,0 l/m² 0 min 0 min 0 W/m² 16,1 km/h (3 Bft) 93,62 %
12.12.2025 17:02 10,1 °C 9,4 °C 5,6 °C 92 % 1022,3 hPa 0,0 l/m² 0 min 0 min 0 W/m² 6,4 km/h (2 Bft) 97,56 %
12.12.2025 17:06 10,0 °C 8,9 °C 5,6 °C 92 % 1022,3 hPa 0,0 l/m² 0 min 0 min 0 W/m² 9,7 km/h (2 Bft) 94,06 %
12.12.2025 17:10 10,0 °C 8,9 °C 5,6 °C 92 % 1022,3 hPa 0,0 l/m² 0 min 0 min 0 W/m² 6,4 km/h (2 Bft) 96,51 %
12.12.2025 17:12 9,9 °C 8,9 °C 5,6 °C 92 % 1022,2 hPa 0,0 l/m² 0 min 0 min 0 W/m² 3,2 km/h (1 Bft) 96,36 %
12.12.2025 17:16 9,9 °C 8,9 °C 5,6 °C 92 % 1022,3 hPa 0,0 l/m² 0 min 0 min 0 W/m² 6,4 km/h (2 Bft) 97,65 %
12.12.2025 17:20 9,9 °C 8,9 °C 5,6 °C 92 % 1022,4 hPa 0,0 l/m² 0 min 0 min 0 W/m² 6,4 km/h (2 Bft) 98,92 %
12.12.2025 17:22 9,9 °C 8,9 °C 5,6 °C 92 % 1022,4 hPa 0,0 l/m² 0 min 0 min 0 W/m² 6,4 km/h (2 Bft) 98,21 %
12.12.2025 17:23 9,9 °C 8,9 °C 5,6 °C 92 % 1022,5 hPa 0,0 l/m² 0 min 0 min 0 W/m² 3,2 km/h (1 Bft) 97,19 %
12.12.2025 17:25 9,9 °C 8,9 °C 5,6 °C 92 % 1022,5 hPa 0,0 l/m² 0 min 0 min 0 W/m² 12,9 km/h (3 Bft) 100,00 %
12.12.2025 17:28 9,9 °C 8,9 °C 5,6 °C 92 % 1022,5 hPa 0,0 l/m² 0 min 0 min 0 W/m² 0,0 km/h (0 Bft) 100,00 %
12.12.2025 17:32 9,9 °C 8,9 °C 5,6 °C 92 % 1022,6 hPa 0,0 l/m² 0 min 0 min 0 W/m² 3,2 km/h (1 Bft) 98,91 %
12.12.2025 17:34 9,8 °C 8,9 °C 5,6 °C 92 % 1022,5 hPa 0,0 l/m² 0 min 0 min 0 W/m² 0,0 km/h (0 Bft) 100,00 %
12.12.2025 17:38 9,8 °C 8,9 °C 5,6 °C 92 % 1022,6 hPa 0,0 l/m² 0 min 0 min 0 W/m² 0,0 km/h (0 Bft) 100,00 %
12.12.2025 17:42 9,8 °C 8,9 °C 5,6 °C 92 % 1022,6 hPa 0,0 l/m² 0 min 0 min 0 W/m² 0,0 km/h (0 Bft) 97,94 %
12.12.2025 17:44 9,8 °C 8,9 °C 5,6 °C 92 % 1022,6 hPa 0,0 l/m² 0 min 0 min 0 W/m² 0,0 km/h (0 Bft) 100,00 %
12.12.2025 17:48 9,8 °C 8,9 °C 5,6 °C 92 % 1022,6 hPa 0,0 l/m² 0 min 0 min 0 W/m² 0,0 km/h (0 Bft) 100,00 %
12.12.2025 17:50 9,8 °C 8,9 °C 5,6 °C 92 % 1022,6 hPa 0,0 l/m² 0 min 0 min 0 W/m² 0,0 km/h (0 Bft) 100,00 %
12.12.2025 17:52 9,8 °C 8,9 °C 5,6 °C 92 % 1022,6 hPa 0,0 l/m² 0 min 0 min 0 W/m² 0,0 km/h (0 Bft) 100,00 %
12.12.2025 17:54 9,8 °C 8,9 °C 5,6 °C 92 % 1022,6 hPa 0,0 l/m² 0 min 0 min 0 W/m² 0,0 km/h (0 Bft) 98,00 %
12.12.2025 17:58 9,7 °C 8,9 °C 5,6 °C 92 % 1022,7 hPa 0,0 l/m² 0 min 0 min 0 W/m² 0,0 km/h (0 Bft) 100,00 %
12.12.2025 18:00 9,7 °C 8,9 °C 5,6 °C 92 % 1022,7 hPa 0,0 l/m² 0 min 0 min 0 W/m² 3,2 km/h (1 Bft) 100,00 %
12.12.2025 18:02 9,7 °C 8,9 °C 5,6 °C 92 % 1022,7 hPa 0,0 l/m² 0 min 0 min 0 W/m² 6,4 km/h (2 Bft) 97,78 %
12.12.2025 18:04 9,7 °C 8,9 °C 5,6 °C 92 % 1022,8 hPa 0,0 l/m² 0 min 0 min 0 W/m² 3,2 km/h (1 Bft) 100,00 %
12.12.2025 18:08 9,7 °C 8,9 °C 5,6 °C 93 % 1022,8 hPa 0,0 l/m² 0 min 0 min 0 W/m² 9,7 km/h (2 Bft) 100,00 %
12.12.2025 18:10 9,7 °C 8,9 °C 5,6 °C 93 % 1022,8 hPa 0,0 l/m² 0 min 0 min 0 W/m² 3,2 km/h (1 Bft) 100,00 %
12.12.2025 18:12 9,7 °C 8,9 °C 5,6 °C 93 % 1022,8 hPa 0,0 l/m² 0 min 0 min 0 W/m² 3,2 km/h (1 Bft) 100,00 %
12.12.2025 18:14 9,6 °C 8,9 °C 5,6 °C 93 % 1022,8 hPa 0,0 l/m² 0 min 0 min 0 W/m² 12,9 km/h (3 Bft) 100,00 %
12.12.2025 18:16 9,6 °C 8,9 °C 5,6 °C 92 % 1022,8 hPa 0,0 l/m² 0 min 0 min 0 W/m² 6,4 km/h (2 Bft) 100,00 %
12.12.2025 18:18 9,6 °C 8,9 °C 5,6 °C 92 % 1022,7 hPa 0,0 l/m² 0 min 0 min 0 W/m² 6,4 km/h (2 Bft) 100,00 %
12.12.2025 18:20 9,6 °C 8,9 °C 5,6 °C 92 % 1022,8 hPa 0,0 l/m² 0 min 0 min 0 W/m² 6,4 km/h (2 Bft) 100,00 %
12.12.2025 18:22 9,6 °C 8,3 °C 5,6 °C 92 % 1022,8 hPa 0,0 l/m² 0 min 0 min 0 W/m² 3,2 km/h (1 Bft) 97,22 %
12.12.2025 18:24 9,6 °C 8,3 °C 5,6 °C 92 % 1022,8 hPa 0,0 l/m² 0 min 0 min 0 W/m² 6,4 km/h (2 Bft) 98,28 %
12.12.2025 18:26 9,6 °C 8,3 °C 5,6 °C 92 % 1022,8 hPa 0,0 l/m² 0 min 0 min 0 W/m² 3,2 km/h (1 Bft) 97,22 %
12.12.2025 18:28 9,6 °C 8,3 °C 5,0 °C 92 % 1022,9 hPa 0,0 l/m² 0 min 0 min 0 W/m² 0,0 km/h (0 Bft) 98,28 %
12.12.2025 18:30 9,6 °C 8,3 °C 5,0 °C 93 % 1022,9 hPa 0,0 l/m² 0 min 0 min 0 W/m² 0,0 km/h (0 Bft) 97,67 %
12.12.2025 18:32 9,5 °C 8,3 °C 5,0 °C 93 % 1022,9 hPa 0,0 l/m² 0 min 0 min 0 W/m² 0,0 km/h (0 Bft) 97,96 %
12.12.2025 18:34 9,5 °C 8,3 °C 5,0 °C 93 % 1022,9 hPa 0,0 l/m² 0 min 0 min 0 W/m² 0,0 km/h (0 Bft) 97,96 %
12.12.2025 18:38 9,4 °C 8,3 °C 5,0 °C 93 % 1023,0 hPa 0,0 l/m² 0 min 0 min 0 W/m² 0,0 km/h (0 Bft) 96,74 %
12.12.2025 18:40 9,4 °C 8,3 °C 5,0 °C 93 % 1023,0 hPa 0,0 l/m² 0 min 0 min 0 W/m² 0,0 km/h (0 Bft) 100,00 %
12.12.2025 18:44 9,4 °C 8,3 °C 5,0 °C 93 % 1023,0 hPa 0,0 l/m² 0 min 0 min 0 W/m² 0,0 km/h (0 Bft) 96,77 %
12.12.2025 18:48 9,4 °C 8,3 °C 5,0 °C 93 % 1023,0 hPa 0,0 l/m² 0 min 0 min 0 W/m² 0,0 km/h (0 Bft) 96,19 %
12.12.2025 18:50 9,4 °C 8,3 °C 5,0 °C 93 % 1023,0 hPa 0,0 l/m² 0 min 0 min 0 W/m² 0,0 km/h (0 Bft) 97,67 %
12.12.2025 18:52 9,3 °C 8,3 °C 5,0 °C 93 % 1023,0 hPa 0,0 l/m² 0 min 0 min 0 W/m² 0,0 km/h (0 Bft) 95,00 %
12.12.2025 18:54 9,3 °C 8,3 °C 5,0 °C 93 % 1023,1 hPa 0,0 l/m² 0 min 0 min 0 W/m² 0,0 km/h (0 Bft) 98,21 %
12.12.2025 18:56 9,3 °C 8,3 °C 5,0 °C 93 % 1023,1 hPa 0,0 l/m² 0 min 0 min 0 W/m² 0,0 km/h (0 Bft) 94,74 %
12.12.2025 18:58 9,3 °C 8,3 °C 5,0 °C 93 % 1023,1 hPa 0,0 l/m² 0 min 0 min 0 W/m² 0,0 km/h (0 Bft) 98,25 %
12.12.2025 19:00 9,3 °C 8,3 °C 5,0 °C 93 % 1023,1 hPa 0,0 l/m² 0 min 0 min 0 W/m² 0,0 km/h (0 Bft) 97,30 %
12.12.2025 19:02 9,3 °C 8,3 °C 5,0 °C 93 % 1023,1 hPa 0,0 l/m² 0 min 0 min 0 W/m² 0,0 km/h (0 Bft) 96,55 %
12.12.2025 19:04 9,2 °C 8,3 °C 5,0 °C 93 % 1023,1 hPa 0,0 l/m² 0 min 0 min 0 W/m² 0,0 km/h (0 Bft) 100,00 %
12.12.2025 19:07 9,2 °C 8,3 °C 5,0 °C 93 % 1023,1 hPa 0,0 l/m² 0 min 0 min 0 W/m² 0,0 km/h (0 Bft) 95,89 %
12.12.2025 19:10 9,2 °C 8,3 °C 5,0 °C 93 % 1023,2 hPa 0,0 l/m² 0 min 0 min 0 W/m² 0,0 km/h (0 Bft) 95,71 %
12.12.2025 19:12 9,2 °C 8,3 °C 5,0 °C 93 % 1023,2 hPa 0,0 l/m² 0 min 0 min 0 W/m² 0,0 km/h (0 Bft) 97,78 %
12.12.2025 19:14 9,2 °C 8,3 °C 5,0 °C 93 % 1023,2 hPa 0,0 l/m² 0 min 0 min 0 W/m² 0,0 km/h (0 Bft) 97,96 %
12.12.2025 19:16 9,2 °C 8,3 °C 5,0 °C 93 % 1023,2 hPa 0,0 l/m² 0 min 0 min 0 W/m² 0,0 km/h (0 Bft) 97,83 %
12.12.2025 19:18 9,1 °C 8,3 °C 5,0 °C 93 % 1023,2 hPa 0,0 l/m² 0 min 0 min 0 W/m² 0,0 km/h (0 Bft) 95,83 %
12.12.2025 19:20 9,1 °C 8,3 °C 5,0 °C 93 % 1023,3 hPa 0,0 l/m² 0 min 0 min 0 W/m² 0,0 km/h (0 Bft) 97,87 %
12.12.2025 19:22 9,1 °C 8,3 °C 5,0 °C 93 % 1023,3 hPa 0,0 l/m² 0 min 0 min 0 W/m² 0,0 km/h (0 Bft) 97,67 %
12.12.2025 19:24 9,1 °C 7,8 °C 5,0 °C 93 % 1023,3 hPa 0,0 l/m² 0 min 0 min 0 W/m² 0,0 km/h (0 Bft) 98,04 %
12.12.2025 19:26 9,1 °C 7,8 °C 5,0 °C 93 % 1023,3 hPa 0,0 l/m² 0 min 0 min 0 W/m² 0,0 km/h (0 Bft) 95,56 %
12.12.2025 19:28 9,1 °C 7,8 °C 5,0 °C 93 % 1023,4 hPa 0,0 l/m² 0 min 0 min 0 W/m² 0,0 km/h (0 Bft) 95,92 %
12.12.2025 19:30 9,1 °C 7,8 °C 5,0 °C 93 % 1023,4 hPa 0,0 l/m² 0 min 0 min 0 W/m² 0,0 km/h (0 Bft) 95,56 %
12.12.2025 19:32 9,0 °C 7,8 °C 4,4 °C 93 % 1023,4 hPa 0,0 l/m² 0 min 0 min 0 W/m² 0,0 km/h (0 Bft) 95,83 %
12.12.2025 19:34 9,0 °C 7,8 °C 4,4 °C 93 % 1023,4 hPa 0,0 l/m² 0 min 0 min 0 W/m² 0,0 km/h (0 Bft) 91,49 %
12.12.2025 19:36 8,9 °C 7,8 °C 4,4 °C 93 % 1023,5 hPa 0,0 l/m² 0 min 0 min 0 W/m² 0,0 km/h (0 Bft) 95,35 %
12.12.2025 19:38 8,9 °C 7,8 °C 4,4 °C 93 % 1023,4 hPa 0,0 l/m² 0 min 0 min 0 W/m² 0,0 km/h (0 Bft) 96,08 %
12.12.2025 19:40 8,9 °C 7,8 °C 4,4 °C 93 % 1023,5 hPa 0,0 l/m² 0 min 0 min 0 W/m² 0,0 km/h (0 Bft) 97,78 %
12.12.2025 19:42 8,8 °C 7,8 °C 4,4 °C 93 % 1023,5 hPa 0,0 l/m² 0 min 0 min 0 W/m² 0,0 km/h (0 Bft) 97,96 %
12.12.2025 19:44 8,8 °C 7,2 °C 4,4 °C 93 % 1023,4 hPa 0,0 l/m² 0 min 0 min 0 W/m² 0,0 km/h (0 Bft) 97,87 %
12.12.2025 19:46 8,8 °C 7,2 °C 4,4 °C 93 % 1023,5 hPa 0,0 l/m² 0 min 0 min 0 W/m² 0,0 km/h (0 Bft) 97,78 %
12.12.2025 19:48 8,8 °C 7,2 °C 4,4 °C 93 % 1023,5 hPa 0,0 l/m² 0 min 0 min 0 W/m² 0,0 km/h (0 Bft) 97,30 %
12.12.2025 19:50 8,7 °C 7,2 °C 4,4 °C 93 % 1023,5 hPa 0,0 l/m² 0 min 0 min 0 W/m² 0,0 km/h (0 Bft) 98,31 %
12.12.2025 19:52 8,7 °C 7,2 °C 4,4 °C 93 % 1023,6 hPa 0,0 l/m² 0 min 0 min 0 W/m² 0,0 km/h (0 Bft) 95,56 %
12.12.2025 19:54 8,7 °C 7,2 °C 4,4 °C 93 % 1023,6 hPa 0,0 l/m² 0 min 0 min 0 W/m² 0,0 km/h (0 Bft) 97,67 %
12.12.2025 19:56 8,6 °C 7,2 °C 4,4 °C 93 % 1023,6 hPa 0,0 l/m² 0 min 0 min 0 W/m² 0,0 km/h (0 Bft) 98,08 %
12.12.2025 19:58 8,6 °C 7,2 °C 3,9 °C 93 % 1023,7 hPa 0,0 l/m² 0 min 0 min 0 W/m² 0,0 km/h (0 Bft) 97,83 %
12.12.2025 20:00 8,6 °C 7,2 °C 3,9 °C 93 % 1023,7 hPa 0,0 l/m² 0 min 0 min 0 W/m² 0,0 km/h (0 Bft) 97,67 %
12.12.2025 20:02 8,6 °C 7,2 °C 3,9 °C 93 % 1023,7 hPa 0,0 l/m² 0 min 0 min 0 W/m² 0,0 km/h (0 Bft) 96,15 %
12.12.2025 20:04 8,5 °C 7,2 °C 3,9 °C 93 % 1023,7 hPa 0,0 l/m² 0 min 0 min 0 W/m² 0,0 km/h (0 Bft) 97,83 %
12.12.2025 20:06 8,4 °C 7,2 °C 3,9 °C 93 % 1023,6 hPa 0,0 l/m² 0 min 0 min 0 W/m² 0,0 km/h (0 Bft) 98,04 %
12.12.2025 20:08 8,4 °C 7,2 °C 3,9 °C 93 % 1023,6 hPa 0,0 l/m² 0 min 0 min 0 W/m² 0,0 km/h (0 Bft) 97,62 %
12.12.2025 20:10 8,4 °C 7,2 °C 3,9 °C 93 % 1023,7 hPa 0,0 l/m² 0 min 0 min 0 W/m² 0,0 km/h (0 Bft) 96,15 %
12.12.2025 20:12 8,3 °C 6,7 °C 3,9 °C 93 % 1023,6 hPa 0,0 l/m² 0 min 0 min 0 W/m² 0,0 km/h (0 Bft) 95,56 %
12.12.2025 20:14 8,3 °C 6,7 °C 3,9 °C 93 % 1023,7 hPa 0,0 l/m² 0 min 0 min 0 W/m² 0,0 km/h (0 Bft) 97,30 %
12.12.2025 20:16 8,3 °C 6,7 °C 3,9 °C 93 % 1023,7 hPa 0,0 l/m² 0 min 0 min 0 W/m² 0,0 km/h (0 Bft) 96,55 %
12.12.2025 20:18 8,2 °C 6,7 °C 3,9 °C 93 % 1023,7 hPa 0,0 l/m² 0 min 0 min 0 W/m² 0,0 km/h (0 Bft) 95,24 %
12.12.2025 20:20 8,2 °C 6,7 °C 3,9 °C 93 % 1023,8 hPa 0,0 l/m² 0 min 0 min 0 W/m² 0,0 km/h (0 Bft) 97,56 %
12.12.2025 20:22 8,2 °C 6,7 °C 3,9 °C 93 % 1023,7 hPa 0,0 l/m² 0 min 0 min 0 W/m² 0,0 km/h (0 Bft) 98,21 %
12.12.2025 20:24 8,1 °C 6,7 °C 3,9 °C 93 % 1023,8 hPa 0,0 l/m² 0 min 0 min 0 W/m² 0,0 km/h (0 Bft) 94,59 %
12.12.2025 20:26 8,1 °C 6,7 °C 3,9 °C 94 % 1023,7 hPa 0,0 l/m² 0 min 0 min 0 W/m² 0,0 km/h (0 Bft) 97,87 %
12.12.2025 20:28 8,1 °C 6,7 °C 3,9 °C 94 % 1023,8 hPa 0,0 l/m² 0 min 0 min 0 W/m² 0,0 km/h (0 Bft) 98,18 %
12.12.2025 20:30 8,1 °C 6,7 °C 3,9 °C 94 % 1023,7 hPa 0,0 l/m² 0 min 0 min 0 W/m² 0,0 km/h (0 Bft) 97,44 %
12.12.2025 20:32 8,0 °C 6,7 °C 3,3 °C 93 % 1023,8 hPa 0,0 l/m² 0 min 0 min 0 W/m² 0,0 km/h (0 Bft) 98,25 %
12.12.2025 20:34 7,9 °C 6,7 °C 3,3 °C 93 % 1023,8 hPa 0,0 l/m² 0 min 0 min 0 W/m² 0,0 km/h (0 Bft) 97,30 %
12.12.2025 20:36 7,9 °C 6,7 °C 3,3 °C 94 % 1023,8 hPa 0,0 l/m² 0 min 0 min 0 W/m² 0,0 km/h (0 Bft) 95,74 %
12.12.2025 20:38 7,9 °C 6,7 °C 3,3 °C 94 % 1023,8 hPa 0,0 l/m² 0 min 0 min 0 W/m² 3,2 km/h (1 Bft) 98,18 %
12.12.2025 20:40 7,9 °C 6,7 °C 3,3 °C 94 % 1023,8 hPa 0,0 l/m² 0 min 0 min 0 W/m² 12,9 km/h (3 Bft) 94,87 %
12.12.2025 20:42 7,8 °C 6,7 °C 3,3 °C 94 % 1023,9 hPa 0,0 l/m² 0 min 0 min 0 W/m² 6,4 km/h (2 Bft) 97,87 %
12.12.2025 20:44 7,8 °C 6,7 °C 3,3 °C 94 % 1024,0 hPa 0,0 l/m² 0 min 0 min 0 W/m² 6,4 km/h (2 Bft) 98,15 %
12.12.2025 20:46 7,8 °C 6,7 °C 3,3 °C 94 % 1024,0 hPa 0,0 l/m² 0 min 0 min 0 W/m² 6,4 km/h (2 Bft) 100,00 %
12.12.2025 20:48 7,8 °C 6,7 °C 3,3 °C 94 % 1024,0 hPa 0,0 l/m² 0 min 0 min 0 W/m² 3,2 km/h (1 Bft) 100,00 %
12.12.2025 20:50 7,7 °C 6,7 °C 3,3 °C 94 % 1024,0 hPa 0,0 l/m² 0 min 0 min 0 W/m² 6,4 km/h (2 Bft) 97,73 %
12.12.2025 20:52 7,7 °C 6,7 °C 3,3 °C 94 % 1024,1 hPa 0,0 l/m² 0 min 0 min 0 W/m² 6,4 km/h (2 Bft) 100,00 %
12.12.2025 20:54 7,7 °C 6,7 °C 3,3 °C 94 % 1024,1 hPa 0,0 l/m² 0 min 0 min 0 W/m² 6,4 km/h (2 Bft) 100,00 %
12.12.2025 20:56 7,7 °C 6,1 °C 3,3 °C 94 % 1024,1 hPa 0,0 l/m² 0 min 0 min 0 W/m² 6,4 km/h (2 Bft) 100,00 %
12.12.2025 20:58 7,6 °C 6,1 °C 3,3 °C 94 % 1024,1 hPa 0,0 l/m² 0 min 0 min 0 W/m² 6,4 km/h (2 Bft) 100,00 %
12.12.2025 21:00 7,6 °C 6,1 °C 3,3 °C 94 % 1024,1 hPa 0,0 l/m² 0 min 0 min 0 W/m² 6,4 km/h (2 Bft) 100,00 %
12.12.2025 21:02 7,6 °C 6,1 °C 3,3 °C 94 % 1024,2 hPa 0,0 l/m² 0 min 0 min 0 W/m² 3,2 km/h (1 Bft) 100,00 %
12.12.2025 21:04 7,6 °C 6,1 °C 3,3 °C 94 % 1024,3 hPa 0,0 l/m² 0 min 0 min 0 W/m² 6,4 km/h (2 Bft) 100,00 %
12.12.2025 21:07 7,5 °C 6,1 °C 3,3 °C 94 % 1024,3 hPa 0,0 l/m² 0 min 0 min 0 W/m² 6,4 km/h (2 Bft) 100,00 %
12.12.2025 21:08 7,5 °C 6,1 °C 3,3 °C 94 % 1024,3 hPa 0,0 l/m² 0 min 0 min 0 W/m² 6,4 km/h (2 Bft) 100,00 %
12.12.2025 21:12 7,5 °C 6,1 °C 3,3 °C 94 % 1024,3 hPa 0,0 l/m² 0 min 0 min 0 W/m² 0,0 km/h (0 Bft) 100,00 %
12.12.2025 21:14 7,4 °C 6,1 °C 3,3 °C 94 % 1024,3 hPa 0,0 l/m² 0 min 0 min 0 W/m² 0,0 km/h (0 Bft) 100,00 %
12.12.2025 21:16 7,4 °C 6,1 °C 3,3 °C 94 % 1024,3 hPa 0,0 l/m² 0 min 0 min 0 W/m² 0,0 km/h (0 Bft) 100,00 %
12.12.2025 21:18 7,4 °C 6,1 °C 3,3 °C 94 % 1024,3 hPa 0,0 l/m² 0 min 0 min 0 W/m² 6,4 km/h (2 Bft) 98,18 %
12.12.2025 21:20 7,4 °C 6,1 °C 3,3 °C 94 % 1024,3 hPa 0,0 l/m² 0 min 0 min 0 W/m² 3,2 km/h (1 Bft) 100,00 %
12.12.2025 21:22 7,4 °C 6,1 °C 3,3 °C 95 % 1024,3 hPa 0,0 l/m² 0 min 0 min 0 W/m² 6,4 km/h (2 Bft) 100,00 %
12.12.2025 21:24 7,3 °C 6,1 °C 3,3 °C 95 % 1024,3 hPa 0,0 l/m² 0 min 0 min 0 W/m² 6,4 km/h (2 Bft) 100,00 %
12.12.2025 21:26 7,3 °C 6,1 °C 3,3 °C 95 % 1024,3 hPa 0,0 l/m² 0 min 0 min 0 W/m² 6,4 km/h (2 Bft) 98,00 %
12.12.2025 21:28 7,3 °C 6,1 °C 3,3 °C 95 % 1024,3 hPa 0,0 l/m² 0 min 0 min 0 W/m² 6,4 km/h (2 Bft) 97,83 %
12.12.2025 21:30 7,3 °C 6,1 °C 3,3 °C 95 % 1024,3 hPa 0,0 l/m² 0 min 0 min 0 W/m² 6,4 km/h (2 Bft) 98,15 %
12.12.2025 21:32 7,3 °C 6,1 °C 3,3 °C 95 % 1024,3 hPa 0,0 l/m² 0 min 0 min 0 W/m² 6,4 km/h (2 Bft) 97,50 %
12.12.2025 21:34 7,2 °C 6,1 °C 3,3 °C 95 % 1024,4 hPa 0,0 l/m² 0 min 0 min 0 W/m² 3,2 km/h (1 Bft) 95,56 %
12.12.2025 21:36 7,2 °C 6,1 °C 3,3 °C 95 % 1024,3 hPa 0,0 l/m² 0 min 0 min 0 W/m² 3,2 km/h (1 Bft) 77,55 %
12.12.2025 21:38 7,2 °C 6,1 °C 3,3 °C 95 % 1024,3 hPa 0,0 l/m² 0 min 0 min 0 W/m² 6,4 km/h (2 Bft) 69,77 %
12.12.2025 21:40 7,2 °C 6,1 °C 2,8 °C 95 % 1024,3 hPa 0,0 l/m² 0 min 0 min 0 W/m² 9,7 km/h (2 Bft) 97,67 %
12.12.2025 21:42 7,2 °C 6,1 °C 2,8 °C 95 % 1024,3 hPa 0,0 l/m² 0 min 0 min 0 W/m² 6,4 km/h (2 Bft) 98,04 %
12.12.2025 21:44 7,1 °C 6,1 °C 2,8 °C 95 % 1024,3 hPa 0,0 l/m² 0 min 0 min 0 W/m² 12,9 km/h (3 Bft) 91,30 %
12.12.2025 21:46 7,1 °C 6,1 °C 2,8 °C 95 % 1024,3 hPa 0,0 l/m² 0 min 0 min 0 W/m² 6,4 km/h (2 Bft) 95,83 %
12.12.2025 21:48 7,1 °C 6,1 °C 2,8 °C 95 % 1024,3 hPa 0,0 l/m² 0 min 0 min 0 W/m² 3,2 km/h (1 Bft) 97,87 %
12.12.2025 21:50 7,1 °C 5,6 °C 2,8 °C 95 % 1024,3 hPa 0,0 l/m² 0 min 0 min 0 W/m² 6,4 km/h (2 Bft) 97,78 %
12.12.2025 21:52 7,1 °C 5,6 °C 2,8 °C 95 % 1024,3 hPa 0,0 l/m² 0 min 0 min 0 W/m² 3,2 km/h (1 Bft) 95,83 %
12.12.2025 21:54 7,0 °C 5,6 °C 2,8 °C 95 % 1024,3 hPa 0,0 l/m² 0 min 0 min 0 W/m² 6,4 km/h (2 Bft) 97,87 %
12.12.2025 21:56 7,0 °C 5,6 °C 2,8 °C 95 % 1024,3 hPa 0,0 l/m² 0 min 0 min 0 W/m² 6,4 km/h (2 Bft) 97,78 %
12.12.2025 21:58 6,9 °C 5,6 °C 2,8 °C 95 % 1024,3 hPa 0,0 l/m² 0 min 0 min 0 W/m² 6,4 km/h (2 Bft) 95,56 %
12.12.2025 22:00 6,9 °C 5,6 °C 2,8 °C 95 % 1024,3 hPa 0,0 l/m² 0 min 0 min 0 W/m² 6,4 km/h (2 Bft) 98,04 %
12.12.2025 22:02 6,9 °C 5,6 °C 2,8 °C 95 % 1024,3 hPa 0,0 l/m² 0 min 0 min 0 W/m² 6,4 km/h (2 Bft) 97,83 %
12.12.2025 22:04 6,9 °C 5,6 °C 2,8 °C 95 % 1024,3 hPa 0,0 l/m² 0 min 0 min 0 W/m² 3,2 km/h (1 Bft) 94,74 %
12.12.2025 22:06 6,8 °C 5,6 °C 2,8 °C 95 % 1024,3 hPa 0,0 l/m² 0 min 0 min 0 W/m² 6,4 km/h (2 Bft) 98,28 %
12.12.2025 22:08 6,8 °C 5,6 °C 2,8 °C 95 % 1024,4 hPa 0,0 l/m² 0 min 0 min 0 W/m² 6,4 km/h (2 Bft) 97,22 %
12.12.2025 22:10 6,8 °C 5,6 °C 2,8 °C 95 % 1024,3 hPa 0,0 l/m² 0 min 0 min 0 W/m² 3,2 km/h (1 Bft) 96,61 %
12.12.2025 22:12 6,8 °C 5,6 °C 2,8 °C 95 % 1024,4 hPa 0,0 l/m² 0 min 0 min 0 W/m² 3,2 km/h (1 Bft) 97,67 %
12.12.2025 22:14 6,8 °C 5,6 °C 2,8 °C 95 % 1024,5 hPa 0,0 l/m² 0 min 0 min 0 W/m² 3,2 km/h (1 Bft) 98,04 %
12.12.2025 22:16 6,7 °C 5,6 °C 2,8 °C 95 % 1024,6 hPa 0,0 l/m² 0 min 0 min 0 W/m² 6,4 km/h (2 Bft) 97,56 %
12.12.2025 22:18 6,7 °C 5,6 °C 2,8 °C 95 % 1024,5 hPa 0,0 l/m² 0 min 0 min 0 W/m² 3,2 km/h (1 Bft) 96,15 %
12.12.2025 22:20 6,7 °C 5,6 °C 2,8 °C 95 % 1024,6 hPa 0,0 l/m² 0 min 0 min 0 W/m² 3,2 km/h (1 Bft) 97,37 %
12.12.2025 22:22 6,7 °C 5,6 °C 2,8 °C 95 % 1024,6 hPa 0,0 l/m² 0 min 0 min 0 W/m² 3,2 km/h (1 Bft) 98,15 %
12.12.2025 22:24 6,7 °C 5,6 °C 2,8 °C 96 % 1024,6 hPa 0,0 l/m² 0 min 0 min 0 W/m² 3,2 km/h (1 Bft) 98,08 %
12.12.2025 22:26 6,7 °C 5,6 °C 2,8 °C 96 % 1024,7 hPa 0,0 l/m² 0 min 0 min 0 W/m² 3,2 km/h (1 Bft) 100,00 %
12.12.2025 22:28 6,6 °C 5,6 °C 2,8 °C 96 % 1024,6 hPa 0,0 l/m² 0 min 0 min 0 W/m² 3,2 km/h (1 Bft) 96,55 %
12.12.2025 22:30 6,6 °C 5,6 °C 2,8 °C 95 % 1024,6 hPa 0,0 l/m² 0 min 0 min 0 W/m² 3,2 km/h (1 Bft) 97,22 %
12.12.2025 22:32 6,6 °C 5,6 °C 2,8 °C 95 % 1024,6 hPa 0,0 l/m² 0 min 0 min 0 W/m² 0,0 km/h (0 Bft) 94,64 %
12.12.2025 22:34 6,6 °C 5,6 °C 2,8 °C 95 % 1024,6 hPa 0,0 l/m² 0 min 0 min 0 W/m² 3,2 km/h (1 Bft) 100,00 %
12.12.2025 22:36 6,6 °C 5,6 °C 2,8 °C 96 % 1024,7 hPa 0,0 l/m² 0 min 0 min 0 W/m² 3,2 km/h (1 Bft) 97,44 %
12.12.2025 22:38 6,6 °C 5,6 °C 2,8 °C 96 % 1024,7 hPa 0,0 l/m² 0 min 0 min 0 W/m² 0,0 km/h (0 Bft) 96,23 %
12.12.2025 22:40 6,6 °C 5,6 °C 2,2 °C 96 % 1024,7 hPa 0,0 l/m² 0 min 0 min 0 W/m² 0,0 km/h (0 Bft) 97,92 %
12.12.2025 22:42 6,5 °C 5,0 °C 2,2 °C 96 % 1024,8 hPa 0,0 l/m² 0 min 0 min 0 W/m² 3,2 km/h (1 Bft) 97,44 %
12.12.2025 22:44 6,5 °C 5,0 °C 2,2 °C 96 % 1024,8 hPa 0,0 l/m² 0 min 0 min 0 W/m² 3,2 km/h (1 Bft) 97,87 %
12.12.2025 22:46 6,5 °C 5,0 °C 2,2 °C 96 % 1024,8 hPa 0,0 l/m² 0 min 0 min 0 W/m² 0,0 km/h (0 Bft) 97,87 %
12.12.2025 22:50 6,5 °C 5,0 °C 2,2 °C 96 % 1024,9 hPa 0,0 l/m² 0 min 0 min 0 W/m² 0,0 km/h (0 Bft) 96,04 %
12.12.2025 22:54 6,4 °C 5,0 °C 2,2 °C 96 % 1024,9 hPa 0,0 l/m² 0 min 0 min 0 W/m² 0,0 km/h (0 Bft) 96,55 %
12.12.2025 22:56 6,4 °C 5,0 °C 2,2 °C 96 % 1025,0 hPa 0,0 l/m² 0 min 0 min 0 W/m² 0,0 km/h (0 Bft) 98,18 %
12.12.2025 22:58 6,4 °C 5,0 °C 2,2 °C 96 % 1025,0 hPa 0,0 l/m² 0 min 0 min 0 W/m² 0,0 km/h (0 Bft) 97,44 %
12.12.2025 23:02 6,3 °C 5,0 °C 2,2 °C 96 % 1024,9 hPa 0,0 l/m² 0 min 0 min 0 W/m² 3,2 km/h (1 Bft) 96,00 %
12.12.2025 23:04 6,3 °C 5,0 °C 2,2 °C 96 % 1024,9 hPa 0,0 l/m² 0 min 0 min 0 W/m² 0,0 km/h (0 Bft) 97,67 %
12.12.2025 23:08 6,2 °C 5,0 °C 2,2 °C 96 % 1024,9 hPa 0,0 l/m² 0 min 0 min 0 W/m² 0,0 km/h (0 Bft) 96,67 %
12.12.2025 23:10 6,2 °C 5,0 °C 2,2 °C 96 % 1025,0 hPa 0,0 l/m² 0 min 0 min 0 W/m² 0,0 km/h (0 Bft) 98,04 %
12.12.2025 23:12 6,2 °C 5,0 °C 2,2 °C 96 % 1024,9 hPa 0,0 l/m² 0 min 0 min 0 W/m² 0,0 km/h (0 Bft) 97,87 %
12.12.2025 23:14 6,2 °C 5,0 °C 2,2 °C 96 % 1025,0 hPa 0,0 l/m² 0 min 0 min 0 W/m² 0,0 km/h (0 Bft) 97,78 %
12.12.2025 23:16 6,2 °C 5,0 °C 2,2 °C 96 % 1025,0 hPa 0,0 l/m² 0 min 0 min 0 W/m² 0,0 km/h (0 Bft) 97,96 %
12.12.2025 23:18 6,1 °C 5,0 °C 2,2 °C 96 % 1025,0 hPa 0,0 l/m² 0 min 0 min 0 W/m² 0,0 km/h (0 Bft) 97,87 %
12.12.2025 23:20 6,1 °C 5,0 °C 2,2 °C 96 % 1025,0 hPa 0,0 l/m² 0 min 0 min 0 W/m² 0,0 km/h (0 Bft) 91,49 %
12.12.2025 23:22 6,1 °C 5,0 °C 2,2 °C 96 % 1025,1 hPa 0,0 l/m² 0 min 0 min 0 W/m² 0,0 km/h (0 Bft) 100,00 %
12.12.2025 23:24 6,1 °C 5,0 °C 2,2 °C 96 % 1025,1 hPa 0,0 l/m² 0 min 0 min 0 W/m² 6,4 km/h (2 Bft) 97,73 %
12.12.2025 23:26 6,1 °C 5,6 °C 2,2 °C 96 % 1025,1 hPa 0,0 l/m² 0 min 0 min 0 W/m² 3,2 km/h (1 Bft) 100,00 %
12.12.2025 23:28 6,1 °C 5,6 °C 2,8 °C 96 % 1025,1 hPa 0,0 l/m² 0 min 0 min 0 W/m² 3,2 km/h (1 Bft) 100,00 %
12.12.2025 23:30 6,1 °C 5,6 °C 2,8 °C 96 % 1025,1 hPa 0,0 l/m² 0 min 0 min 0 W/m² 3,2 km/h (1 Bft) 100,00 %
12.12.2025 23:34 6,2 °C 5,6 °C 2,8 °C 96 % 1025,2 hPa 0,0 l/m² 0 min 0 min 0 W/m² 3,2 km/h (1 Bft) 98,90 %
12.12.2025 23:36 6,2 °C 5,6 °C 2,8 °C 96 % 1025,2 hPa 0,0 l/m² 0 min 0 min 0 W/m² 3,2 km/h (1 Bft) 100,00 %
12.12.2025 23:38 6,2 °C 5,6 °C 2,8 °C 96 % 1025,2 hPa 0,0 l/m² 0 min 0 min 0 W/m² 3,2 km/h (1 Bft) 98,08 %
12.12.2025 23:40 6,2 °C 5,6 °C 2,8 °C 96 % 1025,2 hPa 0,0 l/m² 0 min 0 min 0 W/m² 3,2 km/h (1 Bft) 100,00 %
12.12.2025 23:42 6,2 °C 5,6 °C 2,8 °C 96 % 1025,3 hPa 0,0 l/m² 0 min 0 min 0 W/m² 3,2 km/h (1 Bft) 100,00 %
12.12.2025 23:44 6,2 °C 5,6 °C 2,8 °C 96 % 1025,3 hPa 0,0 l/m² 0 min 0 min 0 W/m² 0,0 km/h (0 Bft) 100,00 %
12.12.2025 23:46 6,2 °C 5,6 °C 2,8 °C 96 % 1025,3 hPa 0,0 l/m² 0 min 0 min 0 W/m² 3,2 km/h (1 Bft) 97,73 %
12.12.2025 23:48 6,3 °C 5,6 °C 2,8 °C 96 % 1025,4 hPa 0,0 l/m² 0 min 0 min 0 W/m² 6,4 km/h (2 Bft) 95,56 %
12.12.2025 23:50 6,3 °C 5,6 °C 2,8 °C 96 % 1025,4 hPa 0,0 l/m² 0 min 0 min 0 W/m² 9,7 km/h (2 Bft) 94,23 %
12.12.2025 23:52 6,3 °C 5,6 °C 2,8 °C 96 % 1025,4 hPa 0,0 l/m² 0 min 0 min 0 W/m² 3,2 km/h (1 Bft) 95,65 %
12.12.2025 23:54 6,4 °C 5,6 °C 2,8 °C 97 % 1025,4 hPa 0,0 l/m² 0 min 0 min 0 W/m² 0,0 km/h (0 Bft) 95,74 %
12.12.2025 23:56 6,4 °C 5,6 °C 2,8 °C 96 % 1025,4 hPa 0,0 l/m² 0 min 0 min 0 W/m² 3,2 km/h (1 Bft) 95,65 %
12.12.2025 23:58 6,4 °C 5,6 °C 2,8 °C 96 % 1025,4 hPa 0,0 l/m² 0 min 0 min 0 W/m² 6,4 km/h (2 Bft) 93,62 %
_ Min-Zeit 01:36 01:26 01:00 13:34 06:00 - - - - 00:58 08:20
Minimum _ 4,1 °C 2,8 °C 0,6 °C 89 % 1020,3 hPa - - - - 0,0 km/h (0 Bft) 58,70 %
_ Max-Zeit 13:40 13:12 13:16 04:38 23:48 00:00 10:30 00:00 12:26 07:04 00:20
Maximum _ 10,9 °C 12,8 °C 7,2 °C 98 % 1025,4 hPa 0,0 l/m² 4 min 0 min 269 W/m² 22,5 km/h
S-SO (4 Bft)
100,00 %
Durchschnitt _ 7,6 °C 7,1 °C 3,9 °C 94 % 1022,1 hPa #0,0 l/m² #1:17 h #0 min. 83 W/m² 8,7 km/h (2 Bft) 97,26 %
© 2025 W. Hausmann